Check out our new PWSWeather beta!
PWSweather.com
Personal Weather Stations
Station Observations
KD5LEN
Ktxnorth1, North Richland Hills, TX 76180

Ktxnorth1North Richland Hills, TX 76180

Lat: 32.885294, Lon: -97.236048

Elevation: 694

Station Type: Vantage Pro 2

http://www.atzer0.net/VWS/root/index.htm

High Low Average
Temperature 61.8°F16.6°C 35.5°F1.9°C 48.2°F9.0°C
Dew Point 33.7°F0.9°C 28.5°F-1.9°C 30.4°F-0.9°C
Winds 8.0 mph 12.9 kmh Calm Calm 2.0 mph SE3.2 kmh SE
Wind Gusts 9.0 mph14.5 kmh -- 4.0 mph6.4 kmh
Humidity 76% 31% 52%
Pressure 30.39 in1029.1 mb 30.22 in1023.4 mb -
Precipitation 0.00 in0.0 mm - -
Hour Temp Dew Point Humidity Winds Wind Gusts Pressure Precip Precip Rate Daily Precip Total
12:00 AM 41.7°F5.4°C 30.8°F-0.7°C 65% 2.0 mph N3.2 kmh N 5.0 mph8.0 kmh 30.36 in1028.1 mb 0.00 in0.0 mm 0.00 in0.0 mm 0.00 in0.0 mm
12:02 AM 41.7°F5.4°C 30.8°F-0.7°C 65% 2.0 mph N3.2 kmh N 2.0 mph3.2 kmh 30.36 in1028.1 mb 0.00 in0.0 mm 0.00 in0.0 mm 0.00 in0.0 mm
12:04 AM 41.7°F5.4°C 30.8°F-0.7°C 65% 3.0 mph N4.8 kmh N 3.0 mph4.8 kmh 30.36 in1028.1 mb 0.00 in0.0 mm 0.00 in0.0 mm 0.00 in0.0 mm
12:06 AM 41.7°F5.4°C 30.8°F-0.7°C 65% 2.0 mph N3.2 kmh N 3.0 mph4.8 kmh 30.36 in1028.1 mb 0.00 in0.0 mm 0.00 in0.0 mm 0.00 in0.0 mm
12:08 AM 41.6°F5.3°C 30.7°F-0.7°C 65% 1.0 mph N1.6 kmh N 3.0 mph4.8 kmh 30.36 in1028.1 mb 0.00 in0.0 mm 0.00 in0.0 mm 0.00 in0.0 mm
12:10 AM 41.6°F5.3°C 30.7°F-0.7°C 65% 2.0 mph N3.2 kmh N 3.0 mph4.8 kmh 30.36 in1028.1 mb 0.00 in0.0 mm 0.00 in0.0 mm 0.00 in0.0 mm
12:12 AM 41.5°F5.3°C 30.6°F-0.8°C 65% 1.0 mph N1.6 kmh N 3.0 mph4.8 kmh 30.36 in1028.1 mb 0.00 in0.0 mm 0.00 in0.0 mm 0.00 in0.0 mm
12:14 AM 41.4°F5.2°C 30.5°F-0.8°C 65% 1.0 mph N1.6 kmh N 3.0 mph4.8 kmh 30.36 in1028.1 mb 0.00 in0.0 mm 0.00 in0.0 mm 0.00 in0.0 mm
12:16 AM 41.4°F5.2°C 30.5°F-0.8°C 65% 1.0 mph N1.6 kmh N 3.0 mph4.8 kmh 30.36 in1028.1 mb 0.00 in0.0 mm 0.00 in0.0 mm 0.00 in0.0 mm
12:18 AM 41.3°F5.2°C 30.4°F-0.9°C 65% 2.0 mph N3.2 kmh N 3.0 mph4.8 kmh 30.37 in1028.4 mb 0.00 in0.0 mm 0.00 in0.0 mm 0.00 in0.0 mm
12:20 AM 41.3°F5.2°C 30.4°F-0.9°C 65% 1.0 mph N1.6 kmh N 3.0 mph4.8 kmh 30.37 in1028.4 mb 0.00 in0.0 mm 0.00 in0.0 mm 0.00 in0.0 mm
12:21 AM 41.2°F5.1°C 30.3°F-0.9°C 65% 2.0 mph N3.2 kmh N 3.0 mph4.8 kmh 30.37 in1028.4 mb 0.00 in0.0 mm 0.00 in0.0 mm 0.00 in0.0 mm
12:23 AM 41.2°F5.1°C 30.7°F-0.7°C 66% 1.0 mph N1.6 kmh N 3.0 mph4.8 kmh 30.36 in1028.1 mb 0.00 in0.0 mm 0.00 in0.0 mm 0.00 in0.0 mm
12:26 AM 41.0°F5.0°C 30.5°F-0.8°C 66% 2.0 mph N3.2 kmh N 3.0 mph4.8 kmh 30.37 in1028.4 mb 0.00 in0.0 mm 0.00 in0.0 mm 0.00 in0.0 mm
12:28 AM 41.0°F5.0°C 30.5°F-0.8°C 66% 3.0 mph N4.8 kmh N 4.0 mph6.4 kmh 30.37 in1028.4 mb 0.00 in0.0 mm 0.00 in0.0 mm 0.00 in0.0 mm
12:30 AM 41.1°F5.1°C 30.6°F-0.8°C 66% 3.0 mph N4.8 kmh N 4.0 mph6.4 kmh 30.37 in1028.4 mb 0.00 in0.0 mm 0.00 in0.0 mm 0.00 in0.0 mm
12:32 AM 41.1°F5.1°C 30.6°F-0.8°C 66% 3.0 mph N4.8 kmh N 4.0 mph6.4 kmh 30.37 in1028.4 mb 0.00 in0.0 mm 0.00 in0.0 mm 0.00 in0.0 mm
12:34 AM 41.1°F5.1°C 30.6°F-0.8°C 66% 3.0 mph N4.8 kmh N 3.0 mph4.8 kmh 30.37 in1028.4 mb 0.00 in0.0 mm 0.00 in0.0 mm 0.00 in0.0 mm
12:36 AM 41.1°F5.1°C 30.6°F-0.8°C 66% 3.0 mph N4.8 kmh N 4.0 mph6.4 kmh 30.37 in1028.4 mb 0.00 in0.0 mm 0.00 in0.0 mm 0.00 in0.0 mm
12:38 AM 41.2°F5.1°C 30.7°F-0.7°C 66% 2.0 mph N3.2 kmh N 4.0 mph6.4 kmh 30.37 in1028.4 mb 0.00 in0.0 mm 0.00 in0.0 mm 0.00 in0.0 mm
12:40 AM 41.2°F5.1°C 30.7°F-0.7°C 66% 3.0 mph N4.8 kmh N 4.0 mph6.4 kmh 30.36 in1028.1 mb 0.00 in0.0 mm 0.00 in0.0 mm 0.00 in0.0 mm
12:42 AM 41.1°F5.1°C 30.6°F-0.8°C 66% 1.0 mph N1.6 kmh N 4.0 mph6.4 kmh 30.37 in1028.4 mb 0.00 in0.0 mm 0.00 in0.0 mm 0.00 in0.0 mm
12:44 AM 41.0°F5.0°C 30.5°F-0.8°C 66% 3.0 mph N4.8 kmh N 4.0 mph6.4 kmh 30.37 in1028.4 mb 0.00 in0.0 mm 0.00 in0.0 mm 0.00 in0.0 mm
12:46 AM 41.0°F5.0°C 30.5°F-0.8°C 66% 2.0 mph N3.2 kmh N 4.0 mph6.4 kmh 30.37 in1028.4 mb 0.00 in0.0 mm 0.00 in0.0 mm 0.00 in0.0 mm
12:48 AM 40.9°F4.9°C 30.4°F-0.9°C 66% 2.0 mph N3.2 kmh N 4.0 mph6.4 kmh 30.37 in1028.4 mb 0.00 in0.0 mm 0.00 in0.0 mm 0.00 in0.0 mm
12:50 AM 40.8°F4.9°C 30.3°F-0.9°C 66% 4.0 mph NNW6.4 kmh NNW 4.0 mph6.4 kmh 30.37 in1028.4 mb 0.00 in0.0 mm 0.00 in0.0 mm 0.00 in0.0 mm
12:52 AM 40.8°F4.9°C 30.3°F-0.9°C 66% 4.0 mph N6.4 kmh N 5.0 mph8.0 kmh 30.37 in1028.4 mb 0.00 in0.0 mm 0.00 in0.0 mm 0.00 in0.0 mm
12:54 AM 40.8°F4.9°C 30.3°F-0.9°C 66% 4.0 mph N6.4 kmh N 5.0 mph8.0 kmh 30.37 in1028.4 mb 0.00 in0.0 mm 0.00 in0.0 mm 0.00 in0.0 mm
12:56 AM 40.7°F4.8°C 30.2°F-1.0°C 66% 2.0 mph N3.2 kmh N 5.0 mph8.0 kmh 30.37 in1028.4 mb 0.00 in0.0 mm 0.00 in0.0 mm 0.00 in0.0 mm
12:58 AM 40.6°F4.8°C 30.2°F-1.0°C 66% 3.0 mph N4.8 kmh N 5.0 mph8.0 kmh 30.37 in1028.4 mb 0.00 in0.0 mm 0.00 in0.0 mm 0.00 in0.0 mm
01:00 AM 40.5°F4.7°C 30.4°F-0.9°C 67% 2.0 mph N3.2 kmh N 5.0 mph8.0 kmh 30.37 in1028.4 mb 0.00 in0.0 mm 0.00 in0.0 mm 0.00 in0.0 mm
01:02 AM 40.5°F4.7°C 30.4°F-0.9°C 67% 3.0 mph N4.8 kmh N 3.0 mph4.8 kmh 30.37 in1028.4 mb 0.00 in0.0 mm 0.00 in0.0 mm 0.00 in0.0 mm
01:04 AM 40.5°F4.7°C 30.4°F-0.9°C 67% 2.0 mph N3.2 kmh N 3.0 mph4.8 kmh 30.37 in1028.4 mb 0.00 in0.0 mm 0.00 in0.0 mm 0.00 in0.0 mm
01:06 AM 40.4°F4.7°C 30.3°F-0.9°C 67% 4.0 mph NNE6.4 kmh NNE 4.0 mph6.4 kmh 30.37 in1028.4 mb 0.00 in0.0 mm 0.00 in0.0 mm 0.00 in0.0 mm
01:08 AM 40.3°F4.6°C 30.2°F-1.0°C 67% 3.0 mph NNE4.8 kmh NNE 4.0 mph6.4 kmh 30.37 in1028.4 mb 0.00 in0.0 mm 0.00 in0.0 mm 0.00 in0.0 mm
01:10 AM 40.2°F4.6°C 30.1°F-1.1°C 67% 3.0 mph N4.8 kmh N 4.0 mph6.4 kmh 30.37 in1028.4 mb 0.00 in0.0 mm 0.00 in0.0 mm 0.00 in0.0 mm
01:12 AM 40.2°F4.6°C 30.1°F-1.1°C 67% 2.0 mph N3.2 kmh N 4.0 mph6.4 kmh 30.37 in1028.4 mb 0.00 in0.0 mm 0.00 in0.0 mm 0.00 in0.0 mm
01:14 AM 40.1°F4.5°C 30.0°F-1.1°C 67% 4.0 mph NNE6.4 kmh NNE 4.0 mph6.4 kmh 30.37 in1028.4 mb 0.00 in0.0 mm 0.00 in0.0 mm 0.00 in0.0 mm
01:16 AM 40.1°F4.5°C 30.0°F-1.1°C 67% 2.0 mph NNE3.2 kmh NNE 4.0 mph6.4 kmh 30.36 in1028.1 mb 0.00 in0.0 mm 0.00 in0.0 mm 0.00 in0.0 mm
01:18 AM 40.0°F4.4°C 29.9°F-1.2°C 67% Calm Calm 4.0 mph6.4 kmh 30.37 in1028.4 mb 0.00 in0.0 mm 0.00 in0.0 mm 0.00 in0.0 mm
01:19 AM 40.0°F4.4°C 29.9°F-1.2°C 67% 2.0 mph NNE3.2 kmh NNE 4.0 mph6.4 kmh 30.37 in1028.4 mb 0.00 in0.0 mm 0.00 in0.0 mm 0.00 in0.0 mm
01:21 AM 39.9°F4.4°C 30.2°F-1.0°C 68% 3.0 mph N4.8 kmh N 4.0 mph6.4 kmh 30.37 in1028.4 mb 0.00 in0.0 mm 0.00 in0.0 mm 0.00 in0.0 mm
01:23 AM 39.8°F4.3°C 30.1°F-1.1°C 68% 2.0 mph N3.2 kmh N 4.0 mph6.4 kmh 30.37 in1028.4 mb 0.00 in0.0 mm 0.00 in0.0 mm 0.00 in0.0 mm
01:26 AM 39.7°F4.3°C 30.0°F-1.1°C 68% 1.0 mph N1.6 kmh N 4.0 mph6.4 kmh 30.36 in1028.1 mb 0.00 in0.0 mm 0.00 in0.0 mm 0.00 in0.0 mm
01:28 AM 39.7°F4.3°C 30.0°F-1.1°C 68% 2.0 mph N3.2 kmh N 4.0 mph6.4 kmh 30.36 in1028.1 mb 0.00 in0.0 mm 0.00 in0.0 mm 0.00 in0.0 mm
01:29 AM 39.6°F4.2°C 29.9°F-1.2°C 68% 1.0 mph N1.6 kmh N 4.0 mph6.4 kmh 30.37 in1028.4 mb 0.00 in0.0 mm 0.00 in0.0 mm 0.00 in0.0 mm
01:32 AM 39.5°F4.2°C 29.8°F-1.2°C 68% 2.0 mph N3.2 kmh N 4.0 mph6.4 kmh 30.36 in1028.1 mb 0.00 in0.0 mm 0.00 in0.0 mm 0.00 in0.0 mm
01:34 AM 39.4°F4.1°C 29.7°F-1.3°C 68% 1.0 mph N1.6 kmh N 3.0 mph4.8 kmh 30.37 in1028.4 mb 0.00 in0.0 mm 0.00 in0.0 mm 0.00 in0.0 mm
01:36 AM 39.4°F4.1°C 30.1°F-1.1°C 69% 1.0 mph N1.6 kmh N 3.0 mph4.8 kmh 30.36 in1028.1 mb 0.00 in0.0 mm 0.00 in0.0 mm 0.00 in0.0 mm
01:38 AM 39.3°F4.1°C 30.0°F-1.1°C 69% 2.0 mph N3.2 kmh N 3.0 mph4.8 kmh 30.37 in1028.4 mb 0.00 in0.0 mm 0.00 in0.0 mm 0.00 in0.0 mm
01:40 AM 39.3°F4.1°C 30.0°F-1.1°C 69% 3.0 mph N4.8 kmh N 3.0 mph4.8 kmh 30.36 in1028.1 mb 0.00 in0.0 mm 0.00 in0.0 mm 0.00 in0.0 mm
01:42 AM 39.3°F4.1°C 30.0°F-1.1°C 69% 2.0 mph N3.2 kmh N 4.0 mph6.4 kmh 30.37 in1028.4 mb 0.00 in0.0 mm 0.00 in0.0 mm 0.00 in0.0 mm
01:44 AM 39.3°F4.1°C 30.0°F-1.1°C 69% 2.0 mph N3.2 kmh N 4.0 mph6.4 kmh 30.36 in1028.1 mb 0.00 in0.0 mm 0.00 in0.0 mm 0.00 in0.0 mm
01:46 AM 39.4°F4.1°C 30.1°F-1.1°C 69% 3.0 mph NNE4.8 kmh NNE 4.0 mph6.4 kmh 30.36 in1028.1 mb 0.00 in0.0 mm 0.00 in0.0 mm 0.00 in0.0 mm
01:48 AM 39.4°F4.1°C 30.1°F-1.1°C 69% 2.0 mph N3.2 kmh N 4.0 mph6.4 kmh 30.36 in1028.1 mb 0.00 in0.0 mm 0.00 in0.0 mm 0.00 in0.0 mm
01:50 AM 39.4°F4.1°C 30.1°F-1.1°C 69% 2.0 mph N3.2 kmh N 4.0 mph6.4 kmh 30.37 in1028.4 mb 0.00 in0.0 mm 0.00 in0.0 mm 0.00 in0.0 mm
01:52 AM 39.4°F4.1°C 30.1°F-1.1°C 69% 2.0 mph N3.2 kmh N 4.0 mph6.4 kmh 30.36 in1028.1 mb 0.00 in0.0 mm 0.00 in0.0 mm 0.00 in0.0 mm
01:54 AM 39.4°F4.1°C 29.7°F-1.3°C 68% 3.0 mph N4.8 kmh N 4.0 mph6.4 kmh 30.37 in1028.4 mb 0.00 in0.0 mm 0.00 in0.0 mm 0.00 in0.0 mm
01:56 AM 39.5°F4.2°C 29.8°F-1.2°C 68% 2.0 mph N3.2 kmh N 4.0 mph6.4 kmh 30.37 in1028.4 mb 0.00 in0.0 mm 0.00 in0.0 mm 0.00 in0.0 mm
01:58 AM 39.5°F4.2°C 29.8°F-1.2°C 68% 3.0 mph N4.8 kmh N 4.0 mph6.4 kmh 30.37 in1028.4 mb 0.00 in0.0 mm 0.00 in0.0 mm 0.00 in0.0 mm
02:00 AM 39.5°F4.2°C 29.8°F-1.2°C 68% 2.0 mph N3.2 kmh N 5.0 mph8.0 kmh 30.37 in1028.4 mb 0.00 in0.0 mm 0.00 in0.0 mm 0.00 in0.0 mm
02:01 AM 39.5°F4.2°C 29.8°F-1.2°C 68% 3.0 mph N4.8 kmh N 5.0 mph8.0 kmh 30.37 in1028.4 mb 0.00 in0.0 mm 0.00 in0.0 mm 0.00 in0.0 mm
02:03 AM 39.5°F4.2°C 29.8°F-1.2°C 68% 3.0 mph NNE4.8 kmh NNE 4.0 mph6.4 kmh 30.37 in1028.4 mb 0.00 in0.0 mm 0.00 in0.0 mm 0.00 in0.0 mm
02:06 AM 39.5°F4.2°C 29.8°F-1.2°C 68% 2.0 mph N3.2 kmh N 5.0 mph8.0 kmh 30.37 in1028.4 mb 0.00 in0.0 mm 0.00 in0.0 mm 0.00 in0.0 mm
02:08 AM 39.4°F4.1°C 29.7°F-1.3°C 68% 3.0 mph N4.8 kmh N 5.0 mph8.0 kmh 30.37 in1028.4 mb 0.00 in0.0 mm 0.00 in0.0 mm 0.00 in0.0 mm
02:10 AM 39.4°F4.1°C 29.7°F-1.3°C 68% 4.0 mph N6.4 kmh N 5.0 mph8.0 kmh 30.37 in1028.4 mb 0.00 in0.0 mm 0.00 in0.0 mm 0.00 in0.0 mm
02:12 AM 39.4°F4.1°C 29.7°F-1.3°C 68% 2.0 mph N3.2 kmh N 5.0 mph8.0 kmh 30.37 in1028.4 mb 0.00 in0.0 mm 0.00 in0.0 mm 0.00 in0.0 mm
02:14 AM 39.4°F4.1°C 29.7°F-1.3°C 68% 2.0 mph N3.2 kmh N 5.0 mph8.0 kmh 30.37 in1028.4 mb 0.00 in0.0 mm 0.00 in0.0 mm 0.00 in0.0 mm
02:16 AM 39.3°F4.1°C 29.6°F-1.3°C 68% 2.0 mph NNE3.2 kmh NNE 5.0 mph8.0 kmh 30.37 in1028.4 mb 0.00 in0.0 mm 0.00 in0.0 mm 0.00 in0.0 mm
02:18 AM 39.2°F4.0°C 29.5°F-1.4°C 68% 2.0 mph NNE3.2 kmh NNE 5.0 mph8.0 kmh 30.37 in1028.4 mb 0.00 in0.0 mm 0.00 in0.0 mm 0.00 in0.0 mm
02:20 AM 39.2°F4.0°C 29.9°F-1.2°C 69% 2.0 mph NNE3.2 kmh NNE 5.0 mph8.0 kmh 30.37 in1028.4 mb 0.00 in0.0 mm 0.00 in0.0 mm 0.00 in0.0 mm
02:22 AM 39.2°F4.0°C 29.9°F-1.2°C 69% 3.0 mph N4.8 kmh N 5.0 mph8.0 kmh 30.37 in1028.4 mb 0.00 in0.0 mm 0.00 in0.0 mm 0.00 in0.0 mm
02:24 AM 39.1°F3.9°C 29.8°F-1.2°C 69% 3.0 mph NNE4.8 kmh NNE 5.0 mph8.0 kmh 30.37 in1028.4 mb 0.00 in0.0 mm 0.00 in0.0 mm 0.00 in0.0 mm
02:26 AM 39.1°F3.9°C 29.8°F-1.2°C 69% 1.0 mph N1.6 kmh N 5.0 mph8.0 kmh 30.37 in1028.4 mb 0.00 in0.0 mm 0.00 in0.0 mm 0.00 in0.0 mm
02:28 AM 39.0°F3.9°C 29.7°F-1.3°C 69% 1.0 mph N1.6 kmh N 5.0 mph8.0 kmh 30.37 in1028.4 mb 0.00 in0.0 mm 0.00 in0.0 mm 0.00 in0.0 mm
02:30 AM 39.0°F3.9°C 29.7°F-1.3°C 69% 1.0 mph NNE1.6 kmh NNE 5.0 mph8.0 kmh 30.37 in1028.4 mb 0.00 in0.0 mm 0.00 in0.0 mm 0.00 in0.0 mm
02:32 AM 38.9°F3.8°C 29.6°F-1.3°C 69% 2.0 mph NNE3.2 kmh NNE 2.0 mph3.2 kmh 30.37 in1028.4 mb 0.00 in0.0 mm 0.00 in0.0 mm 0.00 in0.0 mm
02:34 AM 38.9°F3.8°C 29.6°F-1.3°C 69% 2.0 mph NNE3.2 kmh NNE 3.0 mph4.8 kmh 30.37 in1028.4 mb 0.00 in0.0 mm 0.00 in0.0 mm 0.00 in0.0 mm
02:36 AM 38.8°F3.8°C 29.9°F-1.2°C 70% 1.0 mph NNE1.6 kmh NNE 3.0 mph4.8 kmh 30.37 in1028.4 mb 0.00 in0.0 mm 0.00 in0.0 mm 0.00 in0.0 mm
02:38 AM 38.8°F3.8°C 29.9°F-1.2°C 70% 1.0 mph NNE1.6 kmh NNE 3.0 mph4.8 kmh 30.37 in1028.4 mb 0.00 in0.0 mm 0.00 in0.0 mm 0.00 in0.0 mm
02:40 AM 38.7°F3.7°C 29.8°F-1.2°C 70% 1.0 mph NNE1.6 kmh NNE 3.0 mph4.8 kmh 30.37 in1028.4 mb 0.00 in0.0 mm 0.00 in0.0 mm 0.00 in0.0 mm
02:42 AM 38.6°F3.7°C 29.7°F-1.3°C 70% 2.0 mph NNE3.2 kmh NNE 3.0 mph4.8 kmh 30.36 in1028.1 mb 0.00 in0.0 mm 0.00 in0.0 mm 0.00 in0.0 mm
02:44 AM 38.7°F3.7°C 29.8°F-1.2°C 70% 2.0 mph NNE3.2 kmh NNE 3.0 mph4.8 kmh 30.36 in1028.1 mb 0.00 in0.0 mm 0.00 in0.0 mm 0.00 in0.0 mm
02:46 AM 38.7°F3.7°C 29.8°F-1.2°C 70% 1.0 mph NNE1.6 kmh NNE 3.0 mph4.8 kmh 30.37 in1028.4 mb 0.00 in0.0 mm 0.00 in0.0 mm 0.00 in0.0 mm
02:48 AM 38.6°F3.7°C 29.7°F-1.3°C 70% 2.0 mph NNE3.2 kmh NNE 3.0 mph4.8 kmh 30.37 in1028.4 mb 0.00 in0.0 mm 0.00 in0.0 mm 0.00 in0.0 mm
02:50 AM 38.7°F3.7°C 29.8°F-1.2°C 70% 1.0 mph NE1.6 kmh NE 3.0 mph4.8 kmh 30.36 in1028.1 mb 0.00 in0.0 mm 0.00 in0.0 mm 0.00 in0.0 mm
02:52 AM 38.7°F3.7°C 29.8°F-1.2°C 70% 3.0 mph NNE4.8 kmh NNE 4.0 mph6.4 kmh 30.37 in1028.4 mb 0.00 in0.0 mm 0.00 in0.0 mm 0.00 in0.0 mm
02:54 AM 38.7°F3.7°C 29.8°F-1.2°C 70% 2.0 mph NNE3.2 kmh NNE 4.0 mph6.4 kmh 30.37 in1028.4 mb 0.00 in0.0 mm 0.00 in0.0 mm 0.00 in0.0 mm
02:56 AM 38.8°F3.8°C 29.9°F-1.2°C 70% 3.0 mph NNE4.8 kmh NNE 4.0 mph6.4 kmh 30.37 in1028.4 mb 0.00 in0.0 mm 0.00 in0.0 mm 0.00 in0.0 mm
02:58 AM 38.7°F3.7°C 29.8°F-1.2°C 70% 1.0 mph NNE1.6 kmh NNE 4.0 mph6.4 kmh 30.37 in1028.4 mb 0.00 in0.0 mm 0.00 in0.0 mm 0.00 in0.0 mm
03:00 AM 38.7°F3.7°C 29.8°F-1.2°C 70% 3.0 mph NNE4.8 kmh NNE 4.0 mph6.4 kmh 30.37 in1028.4 mb 0.00 in0.0 mm 0.00 in0.0 mm 0.00 in0.0 mm
03:02 AM 38.7°F3.7°C 29.8°F-1.2°C 70% 1.0 mph NNE1.6 kmh NNE 4.0 mph6.4 kmh 30.37 in1028.4 mb 0.00 in0.0 mm 0.00 in0.0 mm 0.00 in0.0 mm
03:04 AM 38.7°F3.7°C 29.8°F-1.2°C 70% 1.0 mph NNE1.6 kmh NNE 2.0 mph3.2 kmh 30.37 in1028.4 mb 0.00 in0.0 mm 0.00 in0.0 mm 0.00 in0.0 mm
03:06 AM 38.7°F3.7°C 29.8°F-1.2°C 70% 1.0 mph NNE1.6 kmh NNE 2.0 mph3.2 kmh 30.37 in1028.4 mb 0.00 in0.0 mm 0.00 in0.0 mm 0.00 in0.0 mm
03:08 AM 38.6°F3.7°C 29.7°F-1.3°C 70% 2.0 mph NNE3.2 kmh NNE 3.0 mph4.8 kmh 30.37 in1028.4 mb 0.00 in0.0 mm 0.00 in0.0 mm 0.00 in0.0 mm
03:09 AM 38.6°F3.7°C 29.7°F-1.3°C 70% 2.0 mph NNE3.2 kmh NNE 3.0 mph4.8 kmh 30.37 in1028.4 mb 0.00 in0.0 mm 0.00 in0.0 mm 0.00 in0.0 mm
03:11 AM 38.5°F3.6°C 29.6°F-1.3°C 70% 2.0 mph NNE3.2 kmh NNE 3.0 mph4.8 kmh 30.37 in1028.4 mb 0.00 in0.0 mm 0.00 in0.0 mm 0.00 in0.0 mm
03:13 AM 38.5°F3.6°C 29.6°F-1.3°C 70% 1.0 mph NNE1.6 kmh NNE 3.0 mph4.8 kmh 30.37 in1028.4 mb 0.00 in0.0 mm 0.00 in0.0 mm 0.00 in0.0 mm
03:16 AM 38.4°F3.6°C 29.5°F-1.4°C 70% 2.0 mph NNE3.2 kmh NNE 3.0 mph4.8 kmh 30.37 in1028.4 mb 0.00 in0.0 mm 0.00 in0.0 mm 0.00 in0.0 mm
03:18 AM 38.4°F3.6°C 29.5°F-1.4°C 70% 2.0 mph NNE3.2 kmh NNE 3.0 mph4.8 kmh 30.36 in1028.1 mb 0.00 in0.0 mm 0.00 in0.0 mm 0.00 in0.0 mm
03:20 AM 38.4°F3.6°C 29.5°F-1.4°C 70% 2.0 mph NNE3.2 kmh NNE 3.0 mph4.8 kmh 30.37 in1028.4 mb 0.00 in0.0 mm 0.00 in0.0 mm 0.00 in0.0 mm
03:22 AM 38.4°F3.6°C 29.5°F-1.4°C 70% 1.0 mph N1.6 kmh N 3.0 mph4.8 kmh 30.36 in1028.1 mb 0.00 in0.0 mm 0.00 in0.0 mm 0.00 in0.0 mm
03:24 AM 38.4°F3.6°C 29.5°F-1.4°C 70% 2.0 mph N3.2 kmh N 3.0 mph4.8 kmh 30.36 in1028.1 mb 0.00 in0.0 mm 0.00 in0.0 mm 0.00 in0.0 mm
03:26 AM 38.4°F3.6°C 29.5°F-1.4°C 70% 1.0 mph NE1.6 kmh NE 3.0 mph4.8 kmh 30.37 in1028.4 mb 0.00 in0.0 mm 0.00 in0.0 mm 0.00 in0.0 mm
03:28 AM 38.4°F3.6°C 29.5°F-1.4°C 70% 2.0 mph NE3.2 kmh NE 3.0 mph4.8 kmh 30.37 in1028.4 mb 0.00 in0.0 mm 0.00 in0.0 mm 0.00 in0.0 mm
03:30 AM 38.4°F3.6°C 29.5°F-1.4°C 70% 1.0 mph NNE1.6 kmh NNE 3.0 mph4.8 kmh 30.36 in1028.1 mb 0.00 in0.0 mm 0.00 in0.0 mm 0.00 in0.0 mm
03:32 AM 38.4°F3.6°C 29.5°F-1.4°C 70% 1.0 mph NNE1.6 kmh NNE 4.0 mph6.4 kmh 30.36 in1028.1 mb 0.00 in0.0 mm 0.00 in0.0 mm 0.00 in0.0 mm
03:34 AM 38.4°F3.6°C 29.5°F-1.4°C 70% 1.0 mph NNE1.6 kmh NNE 2.0 mph3.2 kmh 30.36 in1028.1 mb 0.00 in0.0 mm 0.00 in0.0 mm 0.00 in0.0 mm
03:36 AM 38.3°F3.5°C 29.7°F-1.3°C 71% 2.0 mph NNE3.2 kmh NNE 3.0 mph4.8 kmh 30.36 in1028.1 mb 0.00 in0.0 mm 0.00 in0.0 mm 0.00 in0.0 mm
03:38 AM 38.3°F3.5°C 29.4°F-1.4°C 70% 1.0 mph NNE1.6 kmh NNE 3.0 mph4.8 kmh 30.36 in1028.1 mb 0.00 in0.0 mm 0.00 in0.0 mm 0.00 in0.0 mm
03:40 AM 38.3°F3.5°C 29.4°F-1.4°C 70% 2.0 mph NNE3.2 kmh NNE 3.0 mph4.8 kmh 30.36 in1028.1 mb 0.00 in0.0 mm 0.00 in0.0 mm 0.00 in0.0 mm
03:42 AM 38.2°F3.4°C 29.6°F-1.3°C 71% 4.0 mph NE6.4 kmh NE 4.0 mph6.4 kmh 30.36 in1028.1 mb 0.00 in0.0 mm 0.00 in0.0 mm 0.00 in0.0 mm
03:44 AM 38.1°F3.4°C 29.5°F-1.4°C 71% 3.0 mph N4.8 kmh N 4.0 mph6.4 kmh 30.36 in1028.1 mb 0.00 in0.0 mm 0.00 in0.0 mm 0.00 in0.0 mm
03:46 AM 38.1°F3.4°C 29.5°F-1.4°C 71% 2.0 mph N3.2 kmh N 4.0 mph6.4 kmh 30.36 in1028.1 mb 0.00 in0.0 mm 0.00 in0.0 mm 0.00 in0.0 mm
03:48 AM 38.1°F3.4°C 29.5°F-1.4°C 71% 2.0 mph NNE3.2 kmh NNE 4.0 mph6.4 kmh 30.36 in1028.1 mb 0.00 in0.0 mm 0.00 in0.0 mm 0.00 in0.0 mm
03:50 AM 38.1°F3.4°C 29.5°F-1.4°C 71% 1.0 mph NNE1.6 kmh NNE 4.0 mph6.4 kmh 30.36 in1028.1 mb 0.00 in0.0 mm 0.00 in0.0 mm 0.00 in0.0 mm
03:52 AM 38.0°F3.3°C 29.5°F-1.4°C 71% 1.0 mph NNE1.6 kmh NNE 4.0 mph6.4 kmh 30.36 in1028.1 mb 0.00 in0.0 mm 0.00 in0.0 mm 0.00 in0.0 mm
03:54 AM 38.0°F3.3°C 29.5°F-1.4°C 71% 2.0 mph NNE3.2 kmh NNE 4.0 mph6.4 kmh 30.36 in1028.1 mb 0.00 in0.0 mm 0.00 in0.0 mm 0.00 in0.0 mm
03:56 AM 37.9°F3.3°C 29.4°F-1.4°C 71% 1.0 mph NNE1.6 kmh NNE 4.0 mph6.4 kmh 30.36 in1028.1 mb 0.00 in0.0 mm 0.00 in0.0 mm 0.00 in0.0 mm
03:58 AM 37.9°F3.3°C 29.4°F-1.4°C 71% 1.0 mph NNE1.6 kmh NNE 4.0 mph6.4 kmh 30.36 in1028.1 mb 0.00 in0.0 mm 0.00 in0.0 mm 0.00 in0.0 mm
04:00 AM 37.8°F3.2°C 29.3°F-1.5°C 71% 1.0 mph NNE1.6 kmh NNE 4.0 mph6.4 kmh 30.36 in1028.1 mb 0.00 in0.0 mm 0.00 in0.0 mm 0.00 in0.0 mm
04:01 AM 37.8°F3.2°C 29.6°F-1.3°C 72% 2.0 mph NNE3.2 kmh NNE 4.0 mph6.4 kmh 30.36 in1028.1 mb 0.00 in0.0 mm 0.00 in0.0 mm 0.00 in0.0 mm
04:03 AM 37.8°F3.2°C 29.6°F-1.3°C 72% 1.0 mph NNE1.6 kmh NNE 2.0 mph3.2 kmh 30.36 in1028.1 mb 0.00 in0.0 mm 0.00 in0.0 mm 0.00 in0.0 mm
04:06 AM 37.8°F3.2°C 29.6°F-1.3°C 72% 3.0 mph NNE4.8 kmh NNE 3.0 mph4.8 kmh 30.36 in1028.1 mb 0.00 in0.0 mm 0.00 in0.0 mm 0.00 in0.0 mm
04:08 AM 37.7°F3.2°C 29.5°F-1.4°C 72% 2.0 mph NNE3.2 kmh NNE 3.0 mph4.8 kmh 30.36 in1028.1 mb 0.00 in0.0 mm 0.00 in0.0 mm 0.00 in0.0 mm
04:10 AM 37.8°F3.2°C 29.6°F-1.3°C 72% 2.0 mph NNE3.2 kmh NNE 3.0 mph4.8 kmh 30.36 in1028.1 mb 0.00 in0.0 mm 0.00 in0.0 mm 0.00 in0.0 mm
04:12 AM 37.7°F3.2°C 29.5°F-1.4°C 72% 1.0 mph N1.6 kmh N 3.0 mph4.8 kmh 30.36 in1028.1 mb 0.00 in0.0 mm 0.00 in0.0 mm 0.00 in0.0 mm
04:14 AM 37.8°F3.2°C 29.6°F-1.3°C 72% 3.0 mph N4.8 kmh N 3.0 mph4.8 kmh 30.36 in1028.1 mb 0.00 in0.0 mm 0.00 in0.0 mm 0.00 in0.0 mm
04:16 AM 37.8°F3.2°C 29.6°F-1.3°C 72% 2.0 mph N3.2 kmh N 3.0 mph4.8 kmh 30.36 in1028.1 mb 0.00 in0.0 mm 0.00 in0.0 mm 0.00 in0.0 mm
04:18 AM 37.8°F3.2°C 29.6°F-1.3°C 72% 2.0 mph NNE3.2 kmh NNE 3.0 mph4.8 kmh 30.36 in1028.1 mb 0.00 in0.0 mm 0.00 in0.0 mm 0.00 in0.0 mm
04:20 AM 37.8°F3.2°C 29.6°F-1.3°C 72% 2.0 mph N3.2 kmh N 3.0 mph4.8 kmh 30.37 in1028.4 mb 0.00 in0.0 mm 0.00 in0.0 mm 0.00 in0.0 mm
04:22 AM 37.8°F3.2°C 29.6°F-1.3°C 72% 2.0 mph N3.2 kmh N 4.0 mph6.4 kmh 30.37 in1028.4 mb 0.00 in0.0 mm 0.00 in0.0 mm 0.00 in0.0 mm
04:24 AM 37.9°F3.3°C 29.7°F-1.3°C 72% 1.0 mph N1.6 kmh N 4.0 mph6.4 kmh 30.37 in1028.4 mb 0.00 in0.0 mm 0.00 in0.0 mm 0.00 in0.0 mm
04:26 AM 37.9°F3.3°C 29.7°F-1.3°C 72% 1.0 mph N1.6 kmh N 4.0 mph6.4 kmh 30.37 in1028.4 mb 0.00 in0.0 mm 0.00 in0.0 mm 0.00 in0.0 mm
04:28 AM 37.9°F3.3°C 29.4°F-1.4°C 71% 2.0 mph N3.2 kmh N 4.0 mph6.4 kmh 30.37 in1028.4 mb 0.00 in0.0 mm 0.00 in0.0 mm 0.00 in0.0 mm
04:30 AM 37.9°F3.3°C 29.7°F-1.3°C 72% 2.0 mph N3.2 kmh N 4.0 mph6.4 kmh 30.37 in1028.4 mb 0.00 in0.0 mm 0.00 in0.0 mm 0.00 in0.0 mm
04:34 AM 37.9°F3.3°C 29.4°F-1.4°C 71% 4.0 mph N6.4 kmh N 4.0 mph6.4 kmh 30.37 in1028.4 mb 0.00 in0.0 mm 0.00 in0.0 mm 0.00 in0.0 mm
04:36 AM 38.0°F3.3°C 29.5°F-1.4°C 71% 3.0 mph N4.8 kmh N 4.0 mph6.4 kmh 30.37 in1028.4 mb 0.00 in0.0 mm 0.00 in0.0 mm 0.00 in0.0 mm
04:38 AM 38.0°F3.3°C 29.5°F-1.4°C 71% 3.0 mph N4.8 kmh N 4.0 mph6.4 kmh 30.37 in1028.4 mb 0.00 in0.0 mm 0.00 in0.0 mm 0.00 in0.0 mm
04:40 AM 38.1°F3.4°C 29.5°F-1.4°C 71% 3.0 mph N4.8 kmh N 4.0 mph6.4 kmh 30.37 in1028.4 mb 0.00 in0.0 mm 0.00 in0.0 mm 0.00 in0.0 mm
04:41 AM 38.1°F3.4°C 29.5°F-1.4°C 71% 3.0 mph N4.8 kmh N 4.0 mph6.4 kmh 30.37 in1028.4 mb 0.00 in0.0 mm 0.00 in0.0 mm 0.00 in0.0 mm
04:43 AM 38.1°F3.4°C 29.5°F-1.4°C 71% 2.0 mph N3.2 kmh N 4.0 mph6.4 kmh 30.37 in1028.4 mb 0.00 in0.0 mm 0.00 in0.0 mm 0.00 in0.0 mm
04:46 AM 38.2°F3.4°C 29.6°F-1.3°C 71% 2.0 mph N3.2 kmh N 4.0 mph6.4 kmh 30.37 in1028.4 mb 0.00 in0.0 mm 0.00 in0.0 mm 0.00 in0.0 mm
04:48 AM 38.1°F3.4°C 29.5°F-1.4°C 71% 3.0 mph N4.8 kmh N 4.0 mph6.4 kmh 30.37 in1028.4 mb 0.00 in0.0 mm 0.00 in0.0 mm 0.00 in0.0 mm
04:50 AM 38.1°F3.4°C 29.5°F-1.4°C 71% 2.0 mph N3.2 kmh N 4.0 mph6.4 kmh 30.37 in1028.4 mb 0.00 in0.0 mm 0.00 in0.0 mm 0.00 in0.0 mm
04:52 AM 38.1°F3.4°C 29.5°F-1.4°C 71% 3.0 mph N4.8 kmh N 4.0 mph6.4 kmh 30.37 in1028.4 mb 0.00 in0.0 mm 0.00 in0.0 mm 0.00 in0.0 mm
04:54 AM 38.0°F3.3°C 29.5°F-1.4°C 71% 3.0 mph N4.8 kmh N 4.0 mph6.4 kmh 30.37 in1028.4 mb 0.00 in0.0 mm 0.00 in0.0 mm 0.00 in0.0 mm
04:56 AM 38.0°F3.3°C 29.5°F-1.4°C 71% 3.0 mph N4.8 kmh N 4.0 mph6.4 kmh 30.37 in1028.4 mb 0.00 in0.0 mm 0.00 in0.0 mm 0.00 in0.0 mm
04:58 AM 37.9°F3.3°C 29.4°F-1.4°C 71% 4.0 mph N6.4 kmh N 4.0 mph6.4 kmh 30.37 in1028.4 mb 0.00 in0.0 mm 0.00 in0.0 mm 0.00 in0.0 mm
05:00 AM 37.9°F3.3°C 29.4°F-1.4°C 71% 2.0 mph N3.2 kmh N 4.0 mph6.4 kmh 30.37 in1028.4 mb 0.00 in0.0 mm 0.00 in0.0 mm 0.00 in0.0 mm
05:01 AM 37.9°F3.3°C 29.4°F-1.4°C 71% 3.0 mph N4.8 kmh N 4.0 mph6.4 kmh 30.37 in1028.4 mb 0.00 in0.0 mm 0.00 in0.0 mm 0.00 in0.0 mm
05:06 AM 37.8°F3.2°C 29.3°F-1.5°C 71% 2.0 mph N3.2 kmh N 4.0 mph6.4 kmh 30.37 in1028.4 mb 0.00 in0.0 mm 0.00 in0.0 mm 0.00 in0.0 mm
05:08 AM 37.8°F3.2°C 29.3°F-1.5°C 71% 2.0 mph N3.2 kmh N 4.0 mph6.4 kmh 30.37 in1028.4 mb 0.00 in0.0 mm 0.00 in0.0 mm 0.00 in0.0 mm
05:10 AM 37.7°F3.2°C 29.2°F-1.6°C 71% 2.0 mph N3.2 kmh N 4.0 mph6.4 kmh 30.37 in1028.4 mb 0.00 in0.0 mm 0.00 in0.0 mm 0.00 in0.0 mm
05:12 AM 37.7°F3.2°C 29.2°F-1.6°C 71% 1.0 mph N1.6 kmh N 4.0 mph6.4 kmh 30.37 in1028.4 mb 0.00 in0.0 mm 0.00 in0.0 mm 0.00 in0.0 mm
05:14 AM 37.5°F3.1°C 29.0°F-1.7°C 71% 1.0 mph N1.6 kmh N 4.0 mph6.4 kmh 30.37 in1028.4 mb 0.00 in0.0 mm 0.00 in0.0 mm 0.00 in0.0 mm
05:16 AM 37.5°F3.1°C 29.3°F-1.5°C 72% 2.0 mph N3.2 kmh N 4.0 mph6.4 kmh 30.37 in1028.4 mb 0.00 in0.0 mm 0.00 in0.0 mm 0.00 in0.0 mm
05:18 AM 37.3°F2.9°C 29.1°F-1.6°C 72% 1.0 mph N1.6 kmh N 4.0 mph6.4 kmh 30.37 in1028.4 mb 0.00 in0.0 mm 0.00 in0.0 mm 0.00 in0.0 mm
05:20 AM 37.3°F2.9°C 29.1°F-1.6°C 72% 1.0 mph N1.6 kmh N 4.0 mph6.4 kmh 30.37 in1028.4 mb 0.00 in0.0 mm 0.00 in0.0 mm 0.00 in0.0 mm
05:22 AM 37.2°F2.9°C 29.0°F-1.7°C 72% 2.0 mph N3.2 kmh N 4.0 mph6.4 kmh 30.37 in1028.4 mb 0.00 in0.0 mm 0.00 in0.0 mm 0.00 in0.0 mm
05:23 AM 37.1°F2.8°C 28.9°F-1.7°C 72% 1.0 mph N1.6 kmh N 4.0 mph6.4 kmh 30.37 in1028.4 mb 0.00 in0.0 mm 0.00 in0.0 mm 0.00 in0.0 mm
05:26 AM 37.0°F2.8°C 28.8°F-1.8°C 72% 2.0 mph N3.2 kmh N 4.0 mph6.4 kmh 30.37 in1028.4 mb 0.00 in0.0 mm 0.00 in0.0 mm 0.00 in0.0 mm
05:28 AM 36.9°F2.7°C 28.7°F-1.8°C 72% 2.0 mph NNE3.2 kmh NNE 4.0 mph6.4 kmh 30.37 in1028.4 mb 0.00 in0.0 mm 0.00 in0.0 mm 0.00 in0.0 mm
05:30 AM 36.8°F2.7°C 29.0°F-1.7°C 73% 2.0 mph NNE3.2 kmh NNE 4.0 mph6.4 kmh 30.37 in1028.4 mb 0.00 in0.0 mm 0.00 in0.0 mm 0.00 in0.0 mm
05:32 AM 36.7°F2.6°C 28.9°F-1.7°C 73% 1.0 mph NNE1.6 kmh NNE 2.0 mph3.2 kmh 30.37 in1028.4 mb 0.00 in0.0 mm 0.00 in0.0 mm 0.00 in0.0 mm
05:34 AM 36.7°F2.6°C 28.9°F-1.7°C 73% 1.0 mph NNE1.6 kmh NNE 2.0 mph3.2 kmh 30.37 in1028.4 mb 0.00 in0.0 mm 0.00 in0.0 mm 0.00 in0.0 mm
05:36 AM 36.7°F2.6°C 28.9°F-1.7°C 73% 1.0 mph NNE1.6 kmh NNE 3.0 mph4.8 kmh 30.37 in1028.4 mb 0.00 in0.0 mm 0.00 in0.0 mm 0.00 in0.0 mm
05:38 AM 36.6°F2.6°C 28.8°F-1.8°C 73% 1.0 mph NNE1.6 kmh NNE 3.0 mph4.8 kmh 30.37 in1028.4 mb 0.00 in0.0 mm 0.00 in0.0 mm 0.00 in0.0 mm
05:40 AM 36.5°F2.5°C 28.7°F-1.8°C 73% 1.0 mph NNE1.6 kmh NNE 3.0 mph4.8 kmh 30.37 in1028.4 mb 0.00 in0.0 mm 0.00 in0.0 mm 0.00 in0.0 mm
05:42 AM 36.5°F2.5°C 29.0°F-1.7°C 74% 1.0 mph NNE1.6 kmh NNE 3.0 mph4.8 kmh 30.37 in1028.4 mb 0.00 in0.0 mm 0.00 in0.0 mm 0.00 in0.0 mm
05:44 AM 36.4°F2.4°C 28.9°F-1.7°C 74% 1.0 mph NNE1.6 kmh NNE 3.0 mph4.8 kmh 30.37 in1028.4 mb 0.00 in0.0 mm 0.00 in0.0 mm 0.00 in0.0 mm
05:46 AM 36.4°F2.4°C 28.9°F-1.7°C 74% 1.0 mph NNE1.6 kmh NNE 3.0 mph4.8 kmh 30.37 in1028.4 mb 0.00 in0.0 mm 0.00 in0.0 mm 0.00 in0.0 mm
05:48 AM 36.3°F2.4°C 28.8°F-1.8°C 74% 1.0 mph NNE1.6 kmh NNE 3.0 mph4.8 kmh 30.37 in1028.4 mb 0.00 in0.0 mm 0.00 in0.0 mm 0.00 in0.0 mm
05:50 AM 36.3°F2.4°C 28.8°F-1.8°C 74% 1.0 mph NNE1.6 kmh NNE 3.0 mph4.8 kmh 30.37 in1028.4 mb 0.00 in0.0 mm 0.00 in0.0 mm 0.00 in0.0 mm
05:52 AM 36.3°F2.4°C 28.8°F-1.8°C 74% 2.0 mph NNE3.2 kmh NNE 3.0 mph4.8 kmh 30.37 in1028.4 mb 0.00 in0.0 mm 0.00 in0.0 mm 0.00 in0.0 mm
05:54 AM 36.3°F2.4°C 28.8°F-1.8°C 74% 2.0 mph NNE3.2 kmh NNE 3.0 mph4.8 kmh 30.37 in1028.4 mb 0.00 in0.0 mm 0.00 in0.0 mm 0.00 in0.0 mm
05:56 AM 36.2°F2.3°C 28.7°F-1.8°C 74% 1.0 mph NNE1.6 kmh NNE 3.0 mph4.8 kmh 30.36 in1028.1 mb 0.00 in0.0 mm 0.00 in0.0 mm 0.00 in0.0 mm
05:58 AM 36.2°F2.3°C 28.7°F-1.8°C 74% 2.0 mph NNE3.2 kmh NNE 3.0 mph4.8 kmh 30.36 in1028.1 mb 0.00 in0.0 mm 0.00 in0.0 mm 0.00 in0.0 mm
05:59 AM 36.2°F2.3°C 28.7°F-1.8°C 74% 2.0 mph NNE3.2 kmh NNE 3.0 mph4.8 kmh 30.37 in1028.4 mb 0.00 in0.0 mm 0.00 in0.0 mm 0.00 in0.0 mm
06:02 AM 36.2°F2.3°C 28.7°F-1.8°C 74% 2.0 mph NNE3.2 kmh NNE 3.0 mph4.8 kmh 30.36 in1028.1 mb 0.00 in0.0 mm 0.00 in0.0 mm 0.00 in0.0 mm
06:04 AM 36.2°F2.3°C 28.7°F-1.8°C 74% 2.0 mph NNE3.2 kmh NNE 2.0 mph3.2 kmh 30.36 in1028.1 mb 0.00 in0.0 mm 0.00 in0.0 mm 0.00 in0.0 mm
06:06 AM 36.2°F2.3°C 28.7°F-1.8°C 74% Calm Calm 3.0 mph4.8 kmh 30.36 in1028.1 mb 0.00 in0.0 mm 0.00 in0.0 mm 0.00 in0.0 mm
06:08 AM 36.2°F2.3°C 28.7°F-1.8°C 74% 2.0 mph N3.2 kmh N 3.0 mph4.8 kmh 30.37 in1028.4 mb 0.00 in0.0 mm 0.00 in0.0 mm 0.00 in0.0 mm
06:10 AM 36.2°F2.3°C 28.7°F-1.8°C 74% 1.0 mph N1.6 kmh N 3.0 mph4.8 kmh 30.36 in1028.1 mb 0.00 in0.0 mm 0.00 in0.0 mm 0.00 in0.0 mm
06:12 AM 36.2°F2.3°C 28.7°F-1.8°C 74% 2.0 mph N3.2 kmh N 3.0 mph4.8 kmh 30.36 in1028.1 mb 0.00 in0.0 mm 0.00 in0.0 mm 0.00 in0.0 mm
06:14 AM 36.2°F2.3°C 28.7°F-1.8°C 74% 3.0 mph NNE4.8 kmh NNE 3.0 mph4.8 kmh 30.36 in1028.1 mb 0.00 in0.0 mm 0.00 in0.0 mm 0.00 in0.0 mm
06:16 AM 36.2°F2.3°C 28.7°F-1.8°C 74% 1.0 mph NNE1.6 kmh NNE 3.0 mph4.8 kmh 30.36 in1028.1 mb 0.00 in0.0 mm 0.00 in0.0 mm 0.00 in0.0 mm
06:18 AM 36.2°F2.3°C 28.7°F-1.8°C 74% 2.0 mph NNE3.2 kmh NNE 3.0 mph4.8 kmh 30.36 in1028.1 mb 0.00 in0.0 mm 0.00 in0.0 mm 0.00 in0.0 mm
06:20 AM 36.1°F2.3°C 28.6°F-1.9°C 74% 1.0 mph NNE1.6 kmh NNE 3.0 mph4.8 kmh 30.36 in1028.1 mb 0.00 in0.0 mm 0.00 in0.0 mm 0.00 in0.0 mm
06:22 AM 36.1°F2.3°C 28.6°F-1.9°C 74% 2.0 mph NNE3.2 kmh NNE 3.0 mph4.8 kmh 30.36 in1028.1 mb 0.00 in0.0 mm 0.00 in0.0 mm 0.00 in0.0 mm
06:24 AM 36.0°F2.2°C 28.5°F-1.9°C 74% 2.0 mph N3.2 kmh N 3.0 mph4.8 kmh 30.36 in1028.1 mb 0.00 in0.0 mm 0.00 in0.0 mm 0.00 in0.0 mm
06:26 AM 36.0°F2.2°C 28.9°F-1.7°C 75% 1.0 mph N1.6 kmh N 3.0 mph4.8 kmh 30.36 in1028.1 mb 0.00 in0.0 mm 0.00 in0.0 mm 0.00 in0.0 mm
06:28 AM 36.0°F2.2°C 28.9°F-1.7°C 75% 2.0 mph N3.2 kmh N 3.0 mph4.8 kmh 30.36 in1028.1 mb 0.00 in0.0 mm 0.00 in0.0 mm 0.00 in0.0 mm
06:30 AM 36.0°F2.2°C 28.9°F-1.7°C 75% 2.0 mph NNE3.2 kmh NNE 3.0 mph4.8 kmh 30.37 in1028.4 mb 0.00 in0.0 mm 0.00 in0.0 mm 0.00 in0.0 mm
06:32 AM 35.9°F2.2°C 28.8°F-1.8°C 75% 1.0 mph NNE1.6 kmh NNE 1.0 mph1.6 kmh 30.36 in1028.1 mb 0.00 in0.0 mm 0.00 in0.0 mm 0.00 in0.0 mm
06:34 AM 35.9°F2.2°C 28.8°F-1.8°C 75% 1.0 mph NNE1.6 kmh NNE 2.0 mph3.2 kmh 30.37 in1028.4 mb 0.00 in0.0 mm 0.00 in0.0 mm 0.00 in0.0 mm
06:36 AM 35.9°F2.2°C 28.8°F-1.8°C 75% 2.0 mph NNE3.2 kmh NNE 2.0 mph3.2 kmh 30.37 in1028.4 mb 0.00 in0.0 mm 0.00 in0.0 mm 0.00 in0.0 mm
06:38 AM 35.8°F2.1°C 28.7°F-1.8°C 75% 1.0 mph NNE1.6 kmh NNE 3.0 mph4.8 kmh 30.36 in1028.1 mb 0.00 in0.0 mm 0.00 in0.0 mm 0.00 in0.0 mm
06:40 AM 35.8°F2.1°C 28.7°F-1.8°C 75% 1.0 mph NNE1.6 kmh NNE 3.0 mph4.8 kmh 30.36 in1028.1 mb 0.00 in0.0 mm 0.00 in0.0 mm 0.00 in0.0 mm
06:42 AM 35.7°F2.1°C 28.6°F-1.9°C 75% Calm Calm 3.0 mph4.8 kmh 30.36 in1028.1 mb 0.00 in0.0 mm 0.00 in0.0 mm 0.00 in0.0 mm
06:44 AM 35.7°F2.1°C 28.6°F-1.9°C 75% 1.0 mph NNE1.6 kmh NNE 3.0 mph4.8 kmh 30.37 in1028.4 mb 0.00 in0.0 mm 0.00 in0.0 mm 0.00 in0.0 mm
06:46 AM 35.7°F2.1°C 28.6°F-1.9°C 75% 1.0 mph NNE1.6 kmh NNE 3.0 mph4.8 kmh 30.37 in1028.4 mb 0.00 in0.0 mm 0.00 in0.0 mm 0.00 in0.0 mm
06:48 AM 35.6°F2.0°C 28.5°F-1.9°C 75% 2.0 mph NNE3.2 kmh NNE 3.0 mph4.8 kmh 30.37 in1028.4 mb 0.00 in0.0 mm 0.00 in0.0 mm 0.00 in0.0 mm
06:50 AM 35.6°F2.0°C 28.8°F-1.8°C 76% 1.0 mph NNE1.6 kmh NNE 3.0 mph4.8 kmh 30.37 in1028.4 mb 0.00 in0.0 mm 0.00 in0.0 mm 0.00 in0.0 mm
06:52 AM 35.6°F2.0°C 28.8°F-1.8°C 76% 2.0 mph NNE3.2 kmh NNE 3.0 mph4.8 kmh 30.37 in1028.4 mb 0.00 in0.0 mm 0.00 in0.0 mm 0.00 in0.0 mm
06:54 AM 35.5°F1.9°C 28.7°F-1.8°C 76% 1.0 mph NNE1.6 kmh NNE 3.0 mph4.8 kmh 30.37 in1028.4 mb 0.00 in0.0 mm 0.00 in0.0 mm 0.00 in0.0 mm
06:56 AM 35.5°F1.9°C 28.7°F-1.8°C 76% 1.0 mph NNE1.6 kmh NNE 3.0 mph4.8 kmh 30.37 in1028.4 mb 0.00 in0.0 mm 0.00 in0.0 mm 0.00 in0.0 mm
06:58 AM 35.5°F1.9°C 28.7°F-1.8°C 76% 1.0 mph NNE1.6 kmh NNE 3.0 mph4.8 kmh 30.37 in1028.4 mb 0.00 in0.0 mm 0.00 in0.0 mm 0.00 in0.0 mm
07:00 AM 35.5°F1.9°C 28.7°F-1.8°C 76% 3.0 mph NE4.8 kmh NE 3.0 mph4.8 kmh 30.36 in1028.1 mb 0.00 in0.0 mm 0.00 in0.0 mm 0.00 in0.0 mm
07:02 AM 35.5°F1.9°C 28.7°F-1.8°C 76% 1.0 mph NE1.6 kmh NE 3.0 mph4.8 kmh 30.37 in1028.4 mb 0.00 in0.0 mm 0.00 in0.0 mm 0.00 in0.0 mm
07:03 AM 35.5°F1.9°C 28.7°F-1.8°C 76% 1.0 mph NE1.6 kmh NE 2.0 mph3.2 kmh 30.36 in1028.1 mb 0.00 in0.0 mm 0.00 in0.0 mm 0.00 in0.0 mm
07:06 AM 35.5°F1.9°C 28.7°F-1.8°C 76% 2.0 mph NNE3.2 kmh NNE 2.0 mph3.2 kmh 30.37 in1028.4 mb 0.00 in0.0 mm 0.00 in0.0 mm 0.00 in0.0 mm
07:08 AM 35.5°F1.9°C 28.7°F-1.8°C 76% 1.0 mph NNE1.6 kmh NNE 3.0 mph4.8 kmh 30.37 in1028.4 mb 0.00 in0.0 mm 0.00 in0.0 mm 0.00 in0.0 mm
07:09 AM 35.5°F1.9°C 28.7°F-1.8°C 76% 1.0 mph NNE1.6 kmh NNE 3.0 mph4.8 kmh 30.37 in1028.4 mb 0.00 in0.0 mm 0.00 in0.0 mm 0.00 in0.0 mm
07:11 AM 35.5°F1.9°C 28.7°F-1.8°C 76% 2.0 mph NNE3.2 kmh NNE 3.0 mph4.8 kmh 30.37 in1028.4 mb 0.00 in0.0 mm 0.00 in0.0 mm 0.00 in0.0 mm
07:13 AM 35.5°F1.9°C 28.7°F-1.8°C 76% 2.0 mph NNE3.2 kmh NNE 3.0 mph4.8 kmh 30.37 in1028.4 mb 0.00 in0.0 mm 0.00 in0.0 mm 0.00 in0.0 mm
07:16 AM 35.6°F2.0°C 28.8°F-1.8°C 76% 2.0 mph N3.2 kmh N 3.0 mph4.8 kmh 30.37 in1028.4 mb 0.00 in0.0 mm 0.00 in0.0 mm 0.00 in0.0 mm
07:18 AM 35.6°F2.0°C 28.8°F-1.8°C 76% 2.0 mph N3.2 kmh N 3.0 mph4.8 kmh 30.37 in1028.4 mb 0.00 in0.0 mm 0.00 in0.0 mm 0.00 in0.0 mm
07:20 AM 35.6°F2.0°C 28.8°F-1.8°C 76% 3.0 mph N4.8 kmh N 3.0 mph4.8 kmh 30.37 in1028.4 mb 0.00 in0.0 mm 0.00 in0.0 mm 0.00 in0.0 mm
07:22 AM 35.7°F2.1°C 28.9°F-1.7°C 76% 1.0 mph N1.6 kmh N 3.0 mph4.8 kmh 30.37 in1028.4 mb 0.00 in0.0 mm 0.00 in0.0 mm 0.00 in0.0 mm
07:24 AM 35.8°F2.1°C 29.0°F-1.7°C 76% 2.0 mph N3.2 kmh N 3.0 mph4.8 kmh 30.37 in1028.4 mb 0.00 in0.0 mm 0.00 in0.0 mm 0.00 in0.0 mm
07:26 AM 35.8°F2.1°C 29.0°F-1.7°C 76% 2.0 mph N3.2 kmh N 3.0 mph4.8 kmh 30.37 in1028.4 mb 0.00 in0.0 mm 0.00 in0.0 mm 0.00 in0.0 mm
07:28 AM 35.9°F2.2°C 29.1°F-1.6°C 76% 1.0 mph N1.6 kmh N 4.0 mph6.4 kmh 30.37 in1028.4 mb 0.00 in0.0 mm 0.00 in0.0 mm 0.00 in0.0 mm
07:30 AM 35.9°F2.2°C 29.1°F-1.6°C 76% 1.0 mph N1.6 kmh N 4.0 mph6.4 kmh 30.37 in1028.4 mb 0.00 in0.0 mm 0.00 in0.0 mm 0.00 in0.0 mm
07:32 AM 36.0°F2.2°C 29.2°F-1.6°C 76% 1.0 mph N1.6 kmh N 4.0 mph6.4 kmh 30.37 in1028.4 mb 0.00 in0.0 mm 0.00 in0.0 mm 0.00 in0.0 mm
07:34 AM 36.0°F2.2°C 29.2°F-1.6°C 76% 2.0 mph N3.2 kmh N 2.0 mph3.2 kmh 30.38 in1028.8 mb 0.00 in0.0 mm 0.00 in0.0 mm 0.00 in0.0 mm
07:36 AM 36.1°F2.3°C 29.3°F-1.5°C 76% 2.0 mph N3.2 kmh N 3.0 mph4.8 kmh 30.37 in1028.4 mb 0.00 in0.0 mm 0.00 in0.0 mm 0.00 in0.0 mm
07:38 AM 36.2°F2.3°C 29.4°F-1.4°C 76% 2.0 mph N3.2 kmh N 3.0 mph4.8 kmh 30.37 in1028.4 mb 0.00 in0.0 mm 0.00 in0.0 mm 0.00 in0.0 mm
07:40 AM 36.3°F2.4°C 29.5°F-1.4°C 76% 2.0 mph N3.2 kmh N 3.0 mph4.8 kmh 30.37 in1028.4 mb 0.00 in0.0 mm 0.00 in0.0 mm 0.00 in0.0 mm
07:42 AM 36.5°F2.5°C 29.7°F-1.3°C 76% 2.0 mph N3.2 kmh N 3.0 mph4.8 kmh 30.38 in1028.8 mb 0.00 in0.0 mm 0.00 in0.0 mm 0.00 in0.0 mm
07:44 AM 36.7°F2.6°C 29.9°F-1.2°C 76% 3.0 mph NNW4.8 kmh NNW 3.0 mph4.8 kmh 30.37 in1028.4 mb 0.00 in0.0 mm 0.00 in0.0 mm 0.00 in0.0 mm
07:46 AM 36.9°F2.7°C 30.1°F-1.1°C 76% 1.0 mph NNW1.6 kmh NNW 3.0 mph4.8 kmh 30.38 in1028.8 mb 0.00 in0.0 mm 0.00 in0.0 mm 0.00 in0.0 mm
07:48 AM 37.1°F2.8°C 29.9°F-1.2°C 75% 2.0 mph NNW3.2 kmh NNW 3.0 mph4.8 kmh 30.38 in1028.8 mb 0.00 in0.0 mm 0.00 in0.0 mm 0.00 in0.0 mm
07:50 AM 37.2°F2.9°C 30.0°F-1.1°C 75% 4.0 mph N6.4 kmh N 4.0 mph6.4 kmh 30.38 in1028.8 mb 0.00 in0.0 mm 0.00 in0.0 mm 0.00 in0.0 mm
07:52 AM 37.4°F3.0°C 29.9°F-1.2°C 74% 1.0 mph N1.6 kmh N 4.0 mph6.4 kmh 30.38 in1028.8 mb 0.00 in0.0 mm 0.00 in0.0 mm 0.00 in0.0 mm
07:54 AM 37.6°F3.1°C 30.1°F-1.1°C 74% 2.0 mph N3.2 kmh N 4.0 mph6.4 kmh 30.38 in1028.8 mb 0.00 in0.0 mm 0.00 in0.0 mm 0.00 in0.0 mm
07:56 AM 37.8°F3.2°C 30.3°F-0.9°C 74% 1.0 mph N1.6 kmh N 4.0 mph6.4 kmh 30.38 in1028.8 mb 0.00 in0.0 mm 0.00 in0.0 mm 0.00 in0.0 mm
07:58 AM 38.0°F3.3°C 30.5°F-0.8°C 74% 2.0 mph N3.2 kmh N 4.0 mph6.4 kmh 30.38 in1028.8 mb 0.00 in0.0 mm 0.00 in0.0 mm 0.00 in0.0 mm
08:00 AM 38.2°F3.4°C 30.7°F-0.7°C 74% 2.0 mph N3.2 kmh N 4.0 mph6.4 kmh 30.38 in1028.8 mb 0.00 in0.0 mm 0.00 in0.0 mm 0.00 in0.0 mm
08:02 AM 38.3°F3.5°C 30.4°F-0.9°C 73% Calm Calm 4.0 mph6.4 kmh 30.38 in1028.8 mb 0.00 in0.0 mm 0.00 in0.0 mm 0.00 in0.0 mm
08:03 AM 38.5°F3.6°C 30.6°F-0.8°C 73% Calm Calm 1.0 mph1.6 kmh 30.38 in1028.8 mb 0.00 in0.0 mm 0.00 in0.0 mm 0.00 in0.0 mm
08:06 AM 38.7°F3.7°C 30.8°F-0.7°C 73% Calm Calm 2.0 mph3.2 kmh 30.38 in1028.8 mb 0.00 in0.0 mm 0.00 in0.0 mm 0.00 in0.0 mm
08:08 AM 38.9°F3.8°C 31.0°F-0.6°C 73% Calm Calm 2.0 mph3.2 kmh 30.38 in1028.8 mb 0.00 in0.0 mm 0.00 in0.0 mm 0.00 in0.0 mm
08:09 AM 39.2°F4.0°C 31.3°F-0.4°C 73% Calm Calm 2.0 mph3.2 kmh 30.38 in1028.8 mb 0.00 in0.0 mm 0.00 in0.0 mm 0.00 in0.0 mm
08:11 AM 39.4°F4.1°C 31.5°F-0.3°C 73% Calm Calm 2.0 mph3.2 kmh 30.38 in1028.8 mb 0.00 in0.0 mm 0.00 in0.0 mm 0.00 in0.0 mm
08:13 AM 39.6°F4.2°C 31.3°F-0.4°C 72% 1.0 mph N1.6 kmh N 2.0 mph3.2 kmh 30.38 in1028.8 mb 0.00 in0.0 mm 0.00 in0.0 mm 0.00 in0.0 mm
08:16 AM 39.8°F4.3°C 31.2°F-0.4°C 71% 2.0 mph N3.2 kmh N 2.0 mph3.2 kmh 30.38 in1028.8 mb 0.00 in0.0 mm 0.00 in0.0 mm 0.00 in0.0 mm
08:18 AM 39.9°F4.4°C 31.3°F-0.4°C 71% 2.0 mph N3.2 kmh N 2.0 mph3.2 kmh 30.38 in1028.8 mb 0.00 in0.0 mm 0.00 in0.0 mm 0.00 in0.0 mm
08:19 AM 40.0°F4.4°C 31.4°F-0.3°C 71% 1.0 mph N1.6 kmh N 2.0 mph3.2 kmh 30.38 in1028.8 mb 0.00 in0.0 mm 0.00 in0.0 mm 0.00 in0.0 mm
08:22 AM 40.2°F4.6°C 31.6°F-0.2°C 71% 1.0 mph N1.6 kmh N 2.0 mph3.2 kmh 30.38 in1028.8 mb 0.00 in0.0 mm 0.00 in0.0 mm 0.00 in0.0 mm
08:24 AM 40.4°F4.7°C 31.8°F-0.1°C 71% Calm Calm 2.0 mph3.2 kmh 30.38 in1028.8 mb 0.00 in0.0 mm 0.00 in0.0 mm 0.00 in0.0 mm
08:26 AM 40.6°F4.8°C 32.0°F0.0°C 71% 1.0 mph N1.6 kmh N 2.0 mph3.2 kmh 30.38 in1028.8 mb 0.00 in0.0 mm 0.00 in0.0 mm 0.00 in0.0 mm
08:28 AM 40.7°F4.8°C 32.0°F0.0°C 71% Calm Calm 2.0 mph3.2 kmh 30.38 in1028.8 mb 0.00 in0.0 mm 0.00 in0.0 mm 0.00 in0.0 mm
08:30 AM 41.0°F5.0°C 32.3°F0.2°C 71% Calm Calm 2.0 mph3.2 kmh 30.38 in1028.8 mb 0.00 in0.0 mm 0.00 in0.0 mm 0.00 in0.0 mm
08:32 AM 41.2°F5.1°C 32.2°F0.1°C 70% Calm Calm 2.0 mph3.2 kmh 30.38 in1028.8 mb 0.00 in0.0 mm 0.00 in0.0 mm 0.00 in0.0 mm
08:34 AM 41.5°F5.3°C 32.5°F0.3°C 70% Calm Calm -- 30.38 in1028.8 mb 0.00 in0.0 mm 0.00 in0.0 mm 0.00 in0.0 mm
08:36 AM 41.7°F5.4°C 32.7°F0.4°C 70% 1.0 mph N1.6 kmh N 1.0 mph1.6 kmh 30.38 in1028.8 mb 0.00 in0.0 mm 0.00 in0.0 mm 0.00 in0.0 mm
08:38 AM 41.9°F5.5°C 32.5°F0.3°C 69% Calm Calm 1.0 mph1.6 kmh 30.38 in1028.8 mb 0.00 in0.0 mm 0.00 in0.0 mm 0.00 in0.0 mm
08:40 AM 42.1°F5.6°C 32.3°F0.2°C 68% Calm Calm 1.0 mph1.6 kmh 30.38 in1028.8 mb 0.00 in0.0 mm 0.00 in0.0 mm 0.00 in0.0 mm
08:42 AM 42.3°F5.7°C 32.5°F0.3°C 68% Calm Calm 1.0 mph1.6 kmh 30.38 in1028.8 mb 0.00 in0.0 mm 0.00 in0.0 mm 0.00 in0.0 mm
08:44 AM 42.5°F5.8°C 32.7°F0.4°C 68% Calm Calm 1.0 mph1.6 kmh 30.38 in1028.8 mb 0.00 in0.0 mm 0.00 in0.0 mm 0.00 in0.0 mm
08:46 AM 42.7°F5.9°C 32.9°F0.5°C 68% Calm Calm 1.0 mph1.6 kmh 30.38 in1028.8 mb 0.00 in0.0 mm 0.00 in0.0 mm 0.00 in0.0 mm
08:48 AM 42.8°F6.0°C 32.6°F0.3°C 67% Calm Calm 1.0 mph1.6 kmh 30.38 in1028.8 mb 0.00 in0.0 mm 0.00 in0.0 mm 0.00 in0.0 mm
08:50 AM 43.0°F6.1°C 32.8°F0.4°C 67% Calm Calm 1.0 mph1.6 kmh 30.38 in1028.8 mb 0.00 in0.0 mm 0.00 in0.0 mm 0.00 in0.0 mm
08:52 AM 43.2°F6.2°C 33.0°F0.6°C 67% Calm Calm 1.0 mph1.6 kmh 30.38 in1028.8 mb 0.00 in0.0 mm 0.00 in0.0 mm 0.00 in0.0 mm
08:54 AM 43.4°F6.3°C 33.2°F0.7°C 67% 1.0 mph N1.6 kmh N 2.0 mph3.2 kmh 30.38 in1028.8 mb 0.00 in0.0 mm 0.00 in0.0 mm 0.00 in0.0 mm
08:56 AM 43.6°F6.4°C 33.0°F0.6°C 66% 2.0 mph N3.2 kmh N 2.0 mph3.2 kmh 30.38 in1028.8 mb 0.00 in0.0 mm 0.00 in0.0 mm 0.00 in0.0 mm
08:58 AM 43.9°F6.6°C 33.3°F0.7°C 66% 2.0 mph NNW3.2 kmh NNW 3.0 mph4.8 kmh 30.38 in1028.8 mb 0.00 in0.0 mm 0.00 in0.0 mm 0.00 in0.0 mm
09:00 AM 44.1°F6.7°C 33.1°F0.6°C 65% Calm Calm 3.0 mph4.8 kmh 30.38 in1028.8 mb 0.00 in0.0 mm 0.00 in0.0 mm 0.00 in0.0 mm
09:02 AM 44.2°F6.8°C 33.2°F0.7°C 65% Calm Calm 3.0 mph4.8 kmh 30.38 in1028.8 mb 0.00 in0.0 mm 0.00 in0.0 mm 0.00 in0.0 mm
09:03 AM 44.4°F6.9°C 33.4°F0.8°C 65% 1.0 mph NNW1.6 kmh NNW 1.0 mph1.6 kmh 30.38 in1028.8 mb 0.00 in0.0 mm 0.00 in0.0 mm 0.00 in0.0 mm
09:06 AM 44.6°F7.0°C 33.2°F0.7°C 64% 2.0 mph NNW3.2 kmh NNW 2.0 mph3.2 kmh 30.38 in1028.8 mb 0.00 in0.0 mm 0.00 in0.0 mm 0.00 in0.0 mm
09:08 AM 44.8°F7.1°C 33.4°F0.8°C 64% 2.0 mph NNW3.2 kmh NNW 2.0 mph3.2 kmh 30.38 in1028.8 mb 0.00 in0.0 mm 0.00 in0.0 mm 0.00 in0.0 mm
09:10 AM 44.9°F7.2°C 33.1°F0.6°C 63% 1.0 mph NNW1.6 kmh NNW 2.0 mph3.2 kmh 30.38 in1028.8 mb 0.00 in0.0 mm 0.00 in0.0 mm 0.00 in0.0 mm
09:12 AM 45.0°F7.2°C 33.2°F0.7°C 63% 1.0 mph NNW1.6 kmh NNW 2.0 mph3.2 kmh 30.38 in1028.8 mb 0.00 in0.0 mm 0.00 in0.0 mm 0.00 in0.0 mm
09:14 AM 45.2°F7.3°C 33.4°F0.8°C 63% 1.0 mph NNW1.6 kmh NNW 2.0 mph3.2 kmh 30.38 in1028.8 mb 0.00 in0.0 mm 0.00 in0.0 mm 0.00 in0.0 mm
09:16 AM 45.5°F7.5°C 33.7°F0.9°C 63% 3.0 mph N4.8 kmh N 3.0 mph4.8 kmh 30.38 in1028.8 mb 0.00 in0.0 mm 0.00 in0.0 mm 0.00 in0.0 mm
09:18 AM 45.9°F7.7°C 33.6°F0.9°C 62% Calm Calm 3.0 mph4.8 kmh 30.38 in1028.8 mb 0.00 in0.0 mm 0.00 in0.0 mm 0.00 in0.0 mm
09:20 AM 46.4°F8.0°C 33.7°F0.9°C 61% Calm Calm 3.0 mph4.8 kmh 30.38 in1028.8 mb 0.00 in0.0 mm 0.00 in0.0 mm 0.00 in0.0 mm
09:22 AM 46.8°F8.2°C 33.7°F0.9°C 60% Calm Calm 3.0 mph4.8 kmh 30.38 in1028.8 mb 0.00 in0.0 mm 0.00 in0.0 mm 0.00 in0.0 mm
09:24 AM 47.2°F8.4°C 33.6°F0.9°C 59% 1.0 mph N1.6 kmh N 3.0 mph4.8 kmh 30.38 in1028.8 mb 0.00 in0.0 mm 0.00 in0.0 mm 0.00 in0.0 mm
09:26 AM 47.5°F8.6°C 33.5°F0.8°C 58% 3.0 mph N4.8 kmh N 3.0 mph4.8 kmh 30.38 in1028.8 mb 0.00 in0.0 mm 0.00 in0.0 mm 0.00 in0.0 mm
09:28 AM 47.8°F8.8°C 32.4°F0.2°C 55% 1.0 mph NNE1.6 kmh NNE 3.0 mph4.8 kmh 30.38 in1028.8 mb 0.00 in0.0 mm 0.00 in0.0 mm 0.00 in0.0 mm
09:30 AM 48.0°F8.9°C 32.6°F0.3°C 55% 2.0 mph NNE3.2 kmh NNE 4.0 mph6.4 kmh 30.38 in1028.8 mb 0.00 in0.0 mm 0.00 in0.0 mm 0.00 in0.0 mm
09:32 AM 48.3°F9.1°C 32.4°F0.2°C 54% 2.0 mph NE3.2 kmh NE 4.0 mph6.4 kmh 30.38 in1028.8 mb 0.00 in0.0 mm 0.00 in0.0 mm 0.00 in0.0 mm
09:34 AM 48.6°F9.2°C 31.8°F-0.1°C 52% 4.0 mph NE6.4 kmh NE 4.0 mph6.4 kmh 30.38 in1028.8 mb 0.00 in0.0 mm 0.00 in0.0 mm 0.00 in0.0 mm
09:36 AM 48.7°F9.3°C 31.9°F-0.1°C 52% 1.0 mph NE1.6 kmh NE 4.0 mph6.4 kmh 30.38 in1028.8 mb 0.00 in0.0 mm 0.00 in0.0 mm 0.00 in0.0 mm
09:38 AM 48.8°F9.3°C 32.0°F0.0°C 52% 1.0 mph NE1.6 kmh NE 4.0 mph6.4 kmh 30.38 in1028.8 mb 0.00 in0.0 mm 0.00 in0.0 mm 0.00 in0.0 mm
09:40 AM 49.0°F9.4°C 32.2°F0.1°C 52% 2.0 mph NE3.2 kmh NE 4.0 mph6.4 kmh 30.38 in1028.8 mb 0.00 in0.0 mm 0.00 in0.0 mm 0.00 in0.0 mm
09:42 AM 49.2°F9.6°C 32.3°F0.2°C 52% Calm Calm 4.0 mph6.4 kmh 30.38 in1028.8 mb 0.00 in0.0 mm 0.00 in0.0 mm 0.00 in0.0 mm
09:44 AM 49.5°F9.7°C 32.1°F0.1°C 51% 2.0 mph NNE3.2 kmh NNE 4.0 mph6.4 kmh 30.38 in1028.8 mb 0.00 in0.0 mm 0.00 in0.0 mm 0.00 in0.0 mm
09:46 AM 49.8°F9.9°C 31.9°F-0.1°C 50% 1.0 mph NNE1.6 kmh NNE 4.0 mph6.4 kmh 30.38 in1028.8 mb 0.00 in0.0 mm 0.00 in0.0 mm 0.00 in0.0 mm
09:48 AM 49.9°F9.9°C 31.5°F-0.3°C 49% 5.0 mph ENE8.0 kmh ENE 5.0 mph8.0 kmh 30.38 in1028.8 mb 0.00 in0.0 mm 0.00 in0.0 mm 0.00 in0.0 mm
09:50 AM 50.0°F10.0°C 31.1°F-0.5°C 48% Calm Calm 5.0 mph8.0 kmh 30.38 in1028.8 mb 0.00 in0.0 mm 0.00 in0.0 mm 0.00 in0.0 mm
09:52 AM 50.1°F10.1°C 31.2°F-0.4°C 48% 3.0 mph E4.8 kmh E 5.0 mph8.0 kmh 30.38 in1028.8 mb 0.00 in0.0 mm 0.00 in0.0 mm 0.00 in0.0 mm
09:53 AM 50.2°F10.1°C 30.8°F-0.7°C 47% 2.0 mph E3.2 kmh E 5.0 mph8.0 kmh 30.38 in1028.8 mb 0.00 in0.0 mm 0.00 in0.0 mm 0.00 in0.0 mm
09:56 AM 50.3°F10.2°C 30.3°F-0.9°C 46% 3.0 mph E4.8 kmh E 5.0 mph8.0 kmh 30.38 in1028.8 mb 0.00 in0.0 mm 0.00 in0.0 mm 0.00 in0.0 mm
09:58 AM 50.4°F10.2°C 29.9°F-1.2°C 45% 2.0 mph E3.2 kmh E 7.0 mph11.3 kmh 30.39 in1029.1 mb 0.00 in0.0 mm 0.00 in0.0 mm 0.00 in0.0 mm
09:59 AM 50.4°F10.2°C 29.9°F-1.2°C 45% Calm Calm 7.0 mph11.3 kmh 30.38 in1028.8 mb 0.00 in0.0 mm 0.00 in0.0 mm 0.00 in0.0 mm
10:01 AM 50.6°F10.3°C 30.6°F-0.8°C 46% Calm Calm 7.0 mph11.3 kmh 30.39 in1029.1 mb 0.00 in0.0 mm 0.00 in0.0 mm 0.00 in0.0 mm
10:04 AM 50.8°F10.4°C 30.2°F-1.0°C 45% 4.0 mph E6.4 kmh E 6.0 mph9.7 kmh 30.39 in1029.1 mb 0.00 in0.0 mm 0.00 in0.0 mm 0.00 in0.0 mm
10:06 AM 50.7°F10.4°C 29.6°F-1.3°C 44% 1.0 mph E1.6 kmh E 6.0 mph9.7 kmh 30.39 in1029.1 mb 0.00 in0.0 mm 0.00 in0.0 mm 0.00 in0.0 mm
10:08 AM 50.7°F10.4°C 30.2°F-1.0°C 45% 2.0 mph NE3.2 kmh NE 6.0 mph9.7 kmh 30.39 in1029.1 mb 0.00 in0.0 mm 0.00 in0.0 mm 0.00 in0.0 mm
10:10 AM 50.7°F10.4°C 30.2°F-1.0°C 45% 3.0 mph NE4.8 kmh NE 6.0 mph9.7 kmh 30.39 in1029.1 mb 0.00 in0.0 mm 0.00 in0.0 mm 0.00 in0.0 mm
10:12 AM 50.8°F10.4°C 30.2°F-1.0°C 45% 3.0 mph NE4.8 kmh NE 6.0 mph9.7 kmh 30.39 in1029.1 mb 0.00 in0.0 mm 0.00 in0.0 mm 0.00 in0.0 mm
10:14 AM 50.9°F10.5°C 30.3°F-0.9°C 45% 6.0 mph NE9.7 kmh NE 6.0 mph9.7 kmh 30.39 in1029.1 mb 0.00 in0.0 mm 0.00 in0.0 mm 0.00 in0.0 mm
10:16 AM 50.9°F10.5°C 29.8°F-1.2°C 44% 4.0 mph ENE6.4 kmh ENE 6.0 mph9.7 kmh 30.39 in1029.1 mb 0.00 in0.0 mm 0.00 in0.0 mm 0.00 in0.0 mm
10:18 AM 50.9°F10.5°C 30.3°F-0.9°C 45% 3.0 mph ENE4.8 kmh ENE 6.0 mph9.7 kmh 30.39 in1029.1 mb 0.00 in0.0 mm 0.00 in0.0 mm 0.00 in0.0 mm
10:20 AM 50.9°F10.5°C 30.3°F-0.9°C 45% 1.0 mph ENE1.6 kmh ENE 6.0 mph9.7 kmh 30.39 in1029.1 mb 0.00 in0.0 mm 0.00 in0.0 mm 0.00 in0.0 mm
10:22 AM 51.0°F10.6°C 31.0°F-0.6°C 46% Calm Calm 6.0 mph9.7 kmh 30.38 in1028.8 mb 0.00 in0.0 mm 0.00 in0.0 mm 0.00 in0.0 mm
10:24 AM 51.3°F10.7°C 31.2°F-0.4°C 46% 1.0 mph E1.6 kmh E 6.0 mph9.7 kmh 30.39 in1029.1 mb 0.00 in0.0 mm 0.00 in0.0 mm 0.00 in0.0 mm
10:26 AM 51.5°F10.8°C 31.4°F-0.3°C 46% 1.0 mph E1.6 kmh E 6.0 mph9.7 kmh 30.39 in1029.1 mb 0.00 in0.0 mm 0.00 in0.0 mm 0.00 in0.0 mm
10:28 AM 51.8°F11.0°C 31.2°F-0.4°C 45% Calm Calm 6.0 mph9.7 kmh 30.38 in1028.8 mb 0.00 in0.0 mm 0.00 in0.0 mm 0.00 in0.0 mm
10:30 AM 52.2°F11.2°C 31.5°F-0.3°C 45% Calm Calm 6.0 mph9.7 kmh 30.38 in1028.8 mb 0.00 in0.0 mm 0.00 in0.0 mm 0.00 in0.0 mm
10:32 AM 52.5°F11.4°C 31.2°F-0.4°C 44% 1.0 mph ESE1.6 kmh ESE 6.0 mph9.7 kmh 30.38 in1028.8 mb 0.00 in0.0 mm 0.00 in0.0 mm 0.00 in0.0 mm
10:34 AM 52.7°F11.5°C 31.4°F-0.3°C 44% 2.0 mph NE3.2 kmh NE 3.0 mph4.8 kmh 30.38 in1028.8 mb 0.00 in0.0 mm 0.00 in0.0 mm 0.00 in0.0 mm
10:36 AM 52.9°F11.6°C 31.6°F-0.2°C 44% Calm Calm 3.0 mph4.8 kmh 30.38 in1028.8 mb 0.00 in0.0 mm 0.00 in0.0 mm 0.00 in0.0 mm
10:38 AM 53.1°F11.7°C 31.8°F-0.1°C 44% 1.0 mph NE1.6 kmh NE 3.0 mph4.8 kmh 30.38 in1028.8 mb 0.00 in0.0 mm 0.00 in0.0 mm 0.00 in0.0 mm
10:40 AM 53.3°F11.8°C 31.4°F-0.3°C 43% Calm Calm 3.0 mph4.8 kmh 30.38 in1028.8 mb 0.00 in0.0 mm 0.00 in0.0 mm 0.00 in0.0 mm
10:41 AM 53.5°F11.9°C 31.6°F-0.2°C 43% 2.0 mph NNE3.2 kmh NNE 4.0 mph6.4 kmh 30.38 in1028.8 mb 0.00 in0.0 mm 0.00 in0.0 mm 0.00 in0.0 mm
10:43 AM 53.5°F11.9°C 31.0°F-0.6°C 42% 2.0 mph N3.2 kmh N 4.0 mph6.4 kmh 30.38 in1028.8 mb 0.00 in0.0 mm 0.00 in0.0 mm 0.00 in0.0 mm
10:46 AM 53.3°F11.8°C 30.8°F-0.7°C 42% 1.0 mph N1.6 kmh N 6.0 mph9.7 kmh 30.38 in1028.8 mb 0.00 in0.0 mm 0.00 in0.0 mm 0.00 in0.0 mm
10:48 AM 53.3°F11.8°C 30.8°F-0.7°C 42% Calm Calm 6.0 mph9.7 kmh 30.38 in1028.8 mb 0.00 in0.0 mm 0.00 in0.0 mm 0.00 in0.0 mm
10:50 AM 53.3°F11.8°C 31.4°F-0.3°C 43% 1.0 mph N1.6 kmh N 6.0 mph9.7 kmh 30.38 in1028.8 mb 0.00 in0.0 mm 0.00 in0.0 mm 0.00 in0.0 mm
10:51 AM 53.4°F11.9°C 30.9°F-0.6°C 42% 3.0 mph NE4.8 kmh NE 6.0 mph9.7 kmh 30.37 in1028.4 mb 0.00 in0.0 mm 0.00 in0.0 mm 0.00 in0.0 mm
10:53 AM 53.4°F11.9°C 30.9°F-0.6°C 42% 3.0 mph NE4.8 kmh NE 8.0 mph12.9 kmh 30.37 in1028.4 mb 0.00 in0.0 mm 0.00 in0.0 mm 0.00 in0.0 mm
10:56 AM 53.5°F11.9°C 31.0°F-0.6°C 42% 2.0 mph NNE3.2 kmh NNE 8.0 mph12.9 kmh 30.37 in1028.4 mb 0.00 in0.0 mm 0.00 in0.0 mm 0.00 in0.0 mm
10:58 AM 53.5°F11.9°C 30.4°F-0.9°C 41% 2.0 mph NE3.2 kmh NE 8.0 mph12.9 kmh 30.38 in1028.8 mb 0.00 in0.0 mm 0.00 in0.0 mm 0.00 in0.0 mm
11:00 AM 53.5°F11.9°C 31.0°F-0.6°C 42% 2.0 mph NNE3.2 kmh NNE 8.0 mph12.9 kmh 30.37 in1028.4 mb 0.00 in0.0 mm 0.00 in0.0 mm 0.00 in0.0 mm
11:02 AM 53.5°F11.9°C 31.0°F-0.6°C 42% 3.0 mph NNW4.8 kmh NNW 8.0 mph12.9 kmh 30.37 in1028.4 mb 0.00 in0.0 mm 0.00 in0.0 mm 0.00 in0.0 mm
11:04 AM 53.4°F11.9°C 30.9°F-0.6°C 42% 2.0 mph N3.2 kmh N 3.0 mph4.8 kmh 30.37 in1028.4 mb 0.00 in0.0 mm 0.00 in0.0 mm 0.00 in0.0 mm
11:06 AM 53.4°F11.9°C 30.9°F-0.6°C 42% Calm Calm 3.0 mph4.8 kmh 30.37 in1028.4 mb 0.00 in0.0 mm 0.00 in0.0 mm 0.00 in0.0 mm
11:08 AM 53.4°F11.9°C 30.3°F-0.9°C 41% 1.0 mph N1.6 kmh N 3.0 mph4.8 kmh 30.37 in1028.4 mb 0.00 in0.0 mm 0.00 in0.0 mm 0.00 in0.0 mm
11:10 AM 53.5°F11.9°C 31.0°F-0.6°C 42% Calm Calm 3.0 mph4.8 kmh 30.37 in1028.4 mb 0.00 in0.0 mm 0.00 in0.0 mm 0.00 in0.0 mm
11:12 AM 53.6°F12.0°C 31.1°F-0.5°C 42% 3.0 mph N4.8 kmh N 4.0 mph6.4 kmh 30.37 in1028.4 mb 0.00 in0.0 mm 0.00 in0.0 mm 0.00 in0.0 mm
11:14 AM 53.8°F12.1°C 30.7°F-0.7°C 41% Calm Calm 4.0 mph6.4 kmh 30.37 in1028.4 mb 0.00 in0.0 mm 0.00 in0.0 mm 0.00 in0.0 mm
11:16 AM 54.0°F12.2°C 31.5°F-0.3°C 42% 7.0 mph E11.3 kmh E 7.0 mph11.3 kmh 30.37 in1028.4 mb 0.00 in0.0 mm 0.00 in0.0 mm 0.00 in0.0 mm
11:18 AM 54.2°F12.3°C 30.4°F-0.9°C 40% 2.0 mph E3.2 kmh E 7.0 mph11.3 kmh 30.37 in1028.4 mb 0.00 in0.0 mm 0.00 in0.0 mm 0.00 in0.0 mm
11:20 AM 54.0°F12.2°C 30.2°F-1.0°C 40% 1.0 mph ENE1.6 kmh ENE 7.0 mph11.3 kmh 30.37 in1028.4 mb 0.00 in0.0 mm 0.00 in0.0 mm 0.00 in0.0 mm
11:22 AM 54.0°F12.2°C 30.9°F-0.6°C 41% 1.0 mph E1.6 kmh E 7.0 mph11.3 kmh 30.37 in1028.4 mb 0.00 in0.0 mm 0.00 in0.0 mm 0.00 in0.0 mm
11:24 AM 54.1°F12.3°C 30.9°F-0.6°C 41% 2.0 mph NE3.2 kmh NE 7.0 mph11.3 kmh 30.37 in1028.4 mb 0.00 in0.0 mm 0.00 in0.0 mm 0.00 in0.0 mm
11:26 AM 54.2°F12.3°C 30.4°F-0.9°C 40% 5.0 mph N8.0 kmh N 7.0 mph11.3 kmh 30.36 in1028.1 mb 0.00 in0.0 mm 0.00 in0.0 mm 0.00 in0.0 mm
11:28 AM 54.3°F12.4°C 30.5°F-0.8°C 40% 4.0 mph NW6.4 kmh NW 7.0 mph11.3 kmh 30.36 in1028.1 mb 0.00 in0.0 mm 0.00 in0.0 mm 0.00 in0.0 mm
11:30 AM 54.4°F12.4°C 30.6°F-0.8°C 40% 2.0 mph N3.2 kmh N 7.0 mph11.3 kmh 30.36 in1028.1 mb 0.00 in0.0 mm 0.00 in0.0 mm 0.00 in0.0 mm
11:32 AM 54.5°F12.5°C 30.7°F-0.7°C 40% 4.0 mph NE6.4 kmh NE 4.0 mph6.4 kmh 30.37 in1028.4 mb 0.00 in0.0 mm 0.00 in0.0 mm 0.00 in0.0 mm
11:34 AM 54.5°F12.5°C 30.7°F-0.7°C 40% 1.0 mph NE1.6 kmh NE 4.0 mph6.4 kmh 30.36 in1028.1 mb 0.00 in0.0 mm 0.00 in0.0 mm 0.00 in0.0 mm
11:36 AM 54.7°F12.6°C 30.9°F-0.6°C 40% 2.0 mph ENE3.2 kmh ENE 4.0 mph6.4 kmh 30.36 in1028.1 mb 0.00 in0.0 mm 0.00 in0.0 mm 0.00 in0.0 mm
11:38 AM 54.9°F12.7°C 30.4°F-0.9°C 39% 2.0 mph N3.2 kmh N 5.0 mph8.0 kmh 30.36 in1028.1 mb 0.00 in0.0 mm 0.00 in0.0 mm 0.00 in0.0 mm
11:39 AM 55.0°F12.8°C 30.5°F-0.8°C 39% 5.0 mph NNW8.0 kmh NNW 5.0 mph8.0 kmh 30.36 in1028.1 mb 0.00 in0.0 mm 0.00 in0.0 mm 0.00 in0.0 mm
11:41 AM 55.0°F12.8°C 30.5°F-0.8°C 39% 3.0 mph NNW4.8 kmh NNW 5.0 mph8.0 kmh 30.36 in1028.1 mb 0.00 in0.0 mm 0.00 in0.0 mm 0.00 in0.0 mm
11:43 AM 54.9°F12.7°C 29.8°F-1.2°C 38% 3.0 mph NNW4.8 kmh NNW 5.0 mph8.0 kmh 30.36 in1028.1 mb 0.00 in0.0 mm 0.00 in0.0 mm 0.00 in0.0 mm
11:46 AM 54.6°F12.6°C 30.2°F-1.0°C 39% 2.0 mph NNW3.2 kmh NNW 5.0 mph8.0 kmh 30.36 in1028.1 mb 0.00 in0.0 mm 0.00 in0.0 mm 0.00 in0.0 mm
11:48 AM 54.5°F12.5°C 30.7°F-0.7°C 40% 2.0 mph NW3.2 kmh NW 5.0 mph8.0 kmh 30.36 in1028.1 mb 0.00 in0.0 mm 0.00 in0.0 mm 0.00 in0.0 mm
11:50 AM 54.5°F12.5°C 30.7°F-0.7°C 40% 3.0 mph NW4.8 kmh NW 5.0 mph8.0 kmh 30.35 in1027.8 mb 0.00 in0.0 mm 0.00 in0.0 mm 0.00 in0.0 mm
11:51 AM 54.6°F12.6°C 30.8°F-0.7°C 40% 3.0 mph SW4.8 kmh SW 5.0 mph8.0 kmh 30.35 in1027.8 mb 0.00 in0.0 mm 0.00 in0.0 mm 0.00 in0.0 mm
11:54 AM 54.6°F12.6°C 30.2°F-1.0°C 39% 1.0 mph S1.6 kmh S 5.0 mph8.0 kmh 30.35 in1027.8 mb 0.00 in0.0 mm 0.00 in0.0 mm 0.00 in0.0 mm
11:56 AM 54.7°F12.6°C 30.9°F-0.6°C 40% 1.0 mph E1.6 kmh E 5.0 mph8.0 kmh 30.35 in1027.8 mb 0.00 in0.0 mm 0.00 in0.0 mm 0.00 in0.0 mm
11:58 AM 54.9°F12.7°C 31.1°F-0.5°C 40% 4.0 mph NW6.4 kmh NW 5.0 mph8.0 kmh 30.35 in1027.8 mb 0.00 in0.0 mm 0.00 in0.0 mm 0.00 in0.0 mm
12:00 PM 55.1°F12.8°C 30.6°F-0.8°C 39% 1.0 mph N1.6 kmh N 6.0 mph9.7 kmh 30.35 in1027.8 mb 0.00 in0.0 mm 0.00 in0.0 mm 0.00 in0.0 mm
12:02 PM 55.2°F12.9°C 30.7°F-0.7°C 39% 5.0 mph ENE8.0 kmh ENE 5.0 mph8.0 kmh 30.35 in1027.8 mb 0.00 in0.0 mm 0.00 in0.0 mm 0.00 in0.0 mm
12:04 PM 55.2°F12.9°C 30.7°F-0.7°C 39% 4.0 mph NE6.4 kmh NE 9.0 mph14.5 kmh 30.34 in1027.4 mb 0.00 in0.0 mm 0.00 in0.0 mm 0.00 in0.0 mm
12:06 PM 55.1°F12.8°C 30.6°F-0.8°C 39% 4.0 mph NNW6.4 kmh NNW 9.0 mph14.5 kmh 30.34 in1027.4 mb 0.00 in0.0 mm 0.00 in0.0 mm 0.00 in0.0 mm
12:08 PM 55.1°F12.8°C 31.2°F-0.4°C 40% 1.0 mph NNE1.6 kmh NNE 9.0 mph14.5 kmh 30.34 in1027.4 mb 0.00 in0.0 mm 0.00 in0.0 mm 0.00 in0.0 mm
12:10 PM 55.1°F12.8°C 30.6°F-0.8°C 39% 1.0 mph NNE1.6 kmh NNE 9.0 mph14.5 kmh 30.34 in1027.4 mb 0.00 in0.0 mm 0.00 in0.0 mm 0.00 in0.0 mm
12:12 PM 55.2°F12.9°C 30.7°F-0.7°C 39% 4.0 mph E6.4 kmh E 9.0 mph14.5 kmh 30.34 in1027.4 mb 0.00 in0.0 mm 0.00 in0.0 mm 0.00 in0.0 mm
12:14 PM 55.1°F12.8°C 30.6°F-0.8°C 39% 1.0 mph E1.6 kmh E 9.0 mph14.5 kmh 30.33 in1027.1 mb 0.00 in0.0 mm 0.00 in0.0 mm 0.00 in0.0 mm
12:16 PM 55.1°F12.8°C 31.2°F-0.4°C 40% 2.0 mph E3.2 kmh E 9.0 mph14.5 kmh 30.33 in1027.1 mb 0.00 in0.0 mm 0.00 in0.0 mm 0.00 in0.0 mm
12:18 PM 55.2°F12.9°C 30.7°F-0.7°C 39% 1.0 mph E1.6 kmh E 9.0 mph14.5 kmh 30.33 in1027.1 mb 0.00 in0.0 mm 0.00 in0.0 mm 0.00 in0.0 mm
12:20 PM 55.2°F12.9°C 30.7°F-0.7°C 39% 3.0 mph SSW4.8 kmh SSW 9.0 mph14.5 kmh 30.33 in1027.1 mb 0.00 in0.0 mm 0.00 in0.0 mm 0.00 in0.0 mm
12:22 PM 55.2°F12.9°C 30.7°F-0.7°C 39% 1.0 mph SSW1.6 kmh SSW 9.0 mph14.5 kmh 30.33 in1027.1 mb 0.00 in0.0 mm 0.00 in0.0 mm 0.00 in0.0 mm
12:24 PM 55.3°F12.9°C 31.4°F-0.3°C 40% 2.0 mph SSW3.2 kmh SSW 9.0 mph14.5 kmh 30.33 in1027.1 mb 0.00 in0.0 mm 0.00 in0.0 mm 0.00 in0.0 mm
12:26 PM 55.6°F13.1°C 31.7°F-0.2°C 40% 1.0 mph NE1.6 kmh NE 9.0 mph14.5 kmh 30.33 in1027.1 mb 0.00 in0.0 mm 0.00 in0.0 mm 0.00 in0.0 mm
12:28 PM 56.0°F13.3°C 31.4°F-0.3°C 39% 5.0 mph ENE8.0 kmh ENE 9.0 mph14.5 kmh 30.32 in1026.8 mb 0.00 in0.0 mm 0.00 in0.0 mm 0.00 in0.0 mm
12:30 PM 56.3°F13.5°C 31.7°F-0.2°C 39% 4.0 mph ENE6.4 kmh ENE 9.0 mph14.5 kmh 30.32 in1026.8 mb 0.00 in0.0 mm 0.00 in0.0 mm 0.00 in0.0 mm
12:32 PM 56.1°F13.4°C 30.9°F-0.6°C 38% Calm Calm 2.0 mph3.2 kmh 30.32 in1026.8 mb 0.00 in0.0 mm 0.00 in0.0 mm 0.00 in0.0 mm
12:34 PM 56.0°F13.3°C 31.4°F-0.3°C 39% 6.0 mph E9.7 kmh E 6.0 mph9.7 kmh 30.33 in1027.1 mb 0.00 in0.0 mm 0.00 in0.0 mm 0.00 in0.0 mm
12:36 PM 56.0°F13.3°C 31.4°F-0.3°C 39% 4.0 mph ENE6.4 kmh ENE 6.0 mph9.7 kmh 30.32 in1026.8 mb 0.00 in0.0 mm 0.00 in0.0 mm 0.00 in0.0 mm
12:38 PM 56.1°F13.4°C 31.5°F-0.3°C 39% 3.0 mph ENE4.8 kmh ENE 6.0 mph9.7 kmh 30.32 in1026.8 mb 0.00 in0.0 mm 0.00 in0.0 mm 0.00 in0.0 mm
12:40 PM 56.1°F13.4°C 30.9°F-0.6°C 38% 1.0 mph ENE1.6 kmh ENE 6.0 mph9.7 kmh 30.32 in1026.8 mb 0.00 in0.0 mm 0.00 in0.0 mm 0.00 in0.0 mm
12:41 PM 56.3°F13.5°C 32.3°F0.2°C 40% 2.0 mph E3.2 kmh E 6.0 mph9.7 kmh 30.32 in1026.8 mb 0.00 in0.0 mm 0.00 in0.0 mm 0.00 in0.0 mm
12:43 PM 56.7°F13.7°C 32.0°F0.0°C 39% 3.0 mph NW4.8 kmh NW 6.0 mph9.7 kmh 30.31 in1026.4 mb 0.00 in0.0 mm 0.00 in0.0 mm 0.00 in0.0 mm
12:46 PM 57.0°F13.9°C 31.0°F-0.6°C 37% 3.0 mph N4.8 kmh N 6.0 mph9.7 kmh 30.32 in1026.8 mb 0.00 in0.0 mm 0.00 in0.0 mm 0.00 in0.0 mm
12:48 PM 57.0°F13.9°C 31.0°F-0.6°C 37% Calm Calm 8.0 mph12.9 kmh 30.31 in1026.4 mb 0.00 in0.0 mm 0.00 in0.0 mm 0.00 in0.0 mm
12:49 PM 56.9°F13.8°C 30.9°F-0.6°C 37% 3.0 mph NNE4.8 kmh NNE 8.0 mph12.9 kmh 30.31 in1026.4 mb 0.00 in0.0 mm 0.00 in0.0 mm 0.00 in0.0 mm
12:52 PM 56.7°F13.7°C 30.1°F-1.1°C 36% 4.0 mph NNW6.4 kmh NNW 9.0 mph14.5 kmh 30.31 in1026.4 mb 0.00 in0.0 mm 0.00 in0.0 mm 0.00 in0.0 mm
12:54 PM 56.5°F13.6°C 30.6°F-0.8°C 37% Calm Calm 9.0 mph14.5 kmh 30.31 in1026.4 mb 0.00 in0.0 mm 0.00 in0.0 mm 0.00 in0.0 mm
12:56 PM 56.6°F13.7°C 30.7°F-0.7°C 37% 8.0 mph NNW12.9 kmh NNW 9.0 mph14.5 kmh 30.31 in1026.4 mb 0.00 in0.0 mm 0.00 in0.0 mm 0.00 in0.0 mm
12:58 PM 56.5°F13.6°C 30.6°F-0.8°C 37% 2.0 mph NW3.2 kmh NW 9.0 mph14.5 kmh 30.31 in1026.4 mb 0.00 in0.0 mm 0.00 in0.0 mm 0.00 in0.0 mm
01:00 PM 56.7°F13.7°C 30.7°F-0.7°C 37% 3.0 mph NW4.8 kmh NW 9.0 mph14.5 kmh 30.31 in1026.4 mb 0.00 in0.0 mm 0.00 in0.0 mm 0.00 in0.0 mm
01:02 PM 56.7°F13.7°C 30.7°F-0.7°C 37% 3.0 mph NNW4.8 kmh NNW 4.0 mph6.4 kmh 30.31 in1026.4 mb 0.00 in0.0 mm 0.00 in0.0 mm 0.00 in0.0 mm
01:04 PM 56.7°F13.7°C 30.7°F-0.7°C 37% 8.0 mph NW12.9 kmh NW 8.0 mph12.9 kmh 30.31 in1026.4 mb 0.00 in0.0 mm 0.00 in0.0 mm 0.00 in0.0 mm
01:06 PM 56.8°F13.8°C 30.8°F-0.7°C 37% 6.0 mph W9.7 kmh W 8.0 mph12.9 kmh 30.31 in1026.4 mb 0.00 in0.0 mm 0.00 in0.0 mm 0.00 in0.0 mm
01:08 PM 56.7°F13.7°C 30.7°F-0.7°C 37% 5.0 mph NW8.0 kmh NW 8.0 mph12.9 kmh 30.30 in1026.1 mb 0.00 in0.0 mm 0.00 in0.0 mm 0.00 in0.0 mm
01:10 PM 56.9°F13.8°C 31.6°F-0.2°C 38% 6.0 mph WSW9.7 kmh WSW 8.0 mph12.9 kmh 30.31 in1026.4 mb 0.00 in0.0 mm 0.00 in0.0 mm 0.00 in0.0 mm
01:12 PM 56.7°F13.7°C 30.7°F-0.7°C 37% 3.0 mph W4.8 kmh W 8.0 mph12.9 kmh 30.30 in1026.1 mb 0.00 in0.0 mm 0.00 in0.0 mm 0.00 in0.0 mm
01:14 PM 56.7°F13.7°C 30.7°F-0.7°C 37% 2.0 mph WNW3.2 kmh WNW 8.0 mph12.9 kmh 30.30 in1026.1 mb 0.00 in0.0 mm 0.00 in0.0 mm 0.00 in0.0 mm
01:16 PM 56.9°F13.8°C 30.9°F-0.6°C 37% 4.0 mph NNW6.4 kmh NNW 8.0 mph12.9 kmh 30.30 in1026.1 mb 0.00 in0.0 mm 0.00 in0.0 mm 0.00 in0.0 mm
01:18 PM 57.0°F13.9°C 31.7°F-0.2°C 38% 3.0 mph NNW4.8 kmh NNW 8.0 mph12.9 kmh 30.30 in1026.1 mb 0.00 in0.0 mm 0.00 in0.0 mm 0.00 in0.0 mm
01:20 PM 57.2°F14.0°C 31.2°F-0.4°C 37% 2.0 mph N3.2 kmh N 8.0 mph12.9 kmh 30.30 in1026.1 mb 0.00 in0.0 mm 0.00 in0.0 mm 0.00 in0.0 mm
01:22 PM 57.2°F14.0°C 31.2°F-0.4°C 37% 1.0 mph SE1.6 kmh SE 8.0 mph12.9 kmh 30.30 in1026.1 mb 0.00 in0.0 mm 0.00 in0.0 mm 0.00 in0.0 mm
01:24 PM 57.4°F14.1°C 31.4°F-0.3°C 37% Calm Calm 8.0 mph12.9 kmh 30.30 in1026.1 mb 0.00 in0.0 mm 0.00 in0.0 mm 0.00 in0.0 mm
01:26 PM 57.5°F14.2°C 31.5°F-0.3°C 37% Calm Calm 8.0 mph12.9 kmh 30.30 in1026.1 mb 0.00 in0.0 mm 0.00 in0.0 mm 0.00 in0.0 mm
01:28 PM 57.7°F14.3°C 31.0°F-0.6°C 36% 2.0 mph NE3.2 kmh NE 8.0 mph12.9 kmh 30.30 in1026.1 mb 0.00 in0.0 mm 0.00 in0.0 mm 0.00 in0.0 mm
01:30 PM 57.8°F14.3°C 31.0°F-0.6°C 36% 1.0 mph NE1.6 kmh NE 8.0 mph12.9 kmh 30.30 in1026.1 mb 0.00 in0.0 mm 0.00 in0.0 mm 0.00 in0.0 mm
01:32 PM 58.1°F14.5°C 32.0°F0.0°C 37% 3.0 mph N4.8 kmh N 8.0 mph12.9 kmh 30.29 in1025.7 mb 0.00 in0.0 mm 0.00 in0.0 mm 0.00 in0.0 mm
01:34 PM 58.4°F14.7°C 31.6°F-0.2°C 36% 1.0 mph NNE1.6 kmh NNE 4.0 mph6.4 kmh 30.29 in1025.7 mb 0.00 in0.0 mm 0.00 in0.0 mm 0.00 in0.0 mm
01:36 PM 58.7°F14.8°C 31.8°F-0.1°C 36% 4.0 mph NNE6.4 kmh NNE 4.0 mph6.4 kmh 30.29 in1025.7 mb 0.00 in0.0 mm 0.00 in0.0 mm 0.00 in0.0 mm
01:38 PM 58.7°F14.8°C 31.1°F-0.5°C 35% 5.0 mph WNW8.0 kmh WNW 8.0 mph12.9 kmh 30.29 in1025.7 mb 0.00 in0.0 mm 0.00 in0.0 mm 0.00 in0.0 mm
01:40 PM 58.4°F14.7°C 30.9°F-0.6°C 35% 4.0 mph NW6.4 kmh NW 8.0 mph12.9 kmh 30.29 in1025.7 mb 0.00 in0.0 mm 0.00 in0.0 mm 0.00 in0.0 mm
01:42 PM 58.3°F14.6°C 30.8°F-0.7°C 35% 6.0 mph WNW9.7 kmh WNW 8.0 mph12.9 kmh 30.29 in1025.7 mb 0.00 in0.0 mm 0.00 in0.0 mm 0.00 in0.0 mm
01:44 PM 58.1°F14.5°C 30.6°F-0.8°C 35% 3.0 mph NW4.8 kmh NW 8.0 mph12.9 kmh 30.29 in1025.7 mb 0.00 in0.0 mm 0.00 in0.0 mm 0.00 in0.0 mm
01:46 PM 57.9°F14.4°C 30.4°F-0.9°C 35% 3.0 mph NNW4.8 kmh NNW 8.0 mph12.9 kmh 30.28 in1025.4 mb 0.00 in0.0 mm 0.00 in0.0 mm 0.00 in0.0 mm
01:48 PM 57.9°F14.4°C 31.1°F-0.5°C 36% 2.0 mph NNW3.2 kmh NNW 8.0 mph12.9 kmh 30.28 in1025.4 mb 0.00 in0.0 mm 0.00 in0.0 mm 0.00 in0.0 mm
01:50 PM 58.0°F14.4°C 31.2°F-0.4°C 36% 3.0 mph NW4.8 kmh NW 8.0 mph12.9 kmh 30.28 in1025.4 mb 0.00 in0.0 mm 0.00 in0.0 mm 0.00 in0.0 mm
01:51 PM 58.0°F14.4°C 30.5°F-0.8°C 35% 1.0 mph NW1.6 kmh NW 8.0 mph12.9 kmh 30.28 in1025.4 mb 0.00 in0.0 mm 0.00 in0.0 mm 0.00 in0.0 mm
01:53 PM 58.0°F14.4°C 31.2°F-0.4°C 36% 3.0 mph NE4.8 kmh NE 8.0 mph12.9 kmh 30.28 in1025.4 mb 0.00 in0.0 mm 0.00 in0.0 mm 0.00 in0.0 mm
01:56 PM 58.2°F14.6°C 31.4°F-0.3°C 36% 2.0 mph NE3.2 kmh NE 8.0 mph12.9 kmh 30.28 in1025.4 mb 0.00 in0.0 mm 0.00 in0.0 mm 0.00 in0.0 mm
01:58 PM 58.5°F14.7°C 31.7°F-0.2°C 36% 3.0 mph N4.8 kmh N 8.0 mph12.9 kmh 30.28 in1025.4 mb 0.00 in0.0 mm 0.00 in0.0 mm 0.00 in0.0 mm
02:00 PM 58.8°F14.9°C 31.9°F-0.1°C 36% 2.0 mph N3.2 kmh N 8.0 mph12.9 kmh 30.27 in1025.1 mb 0.00 in0.0 mm 0.00 in0.0 mm 0.00 in0.0 mm
02:02 PM 59.0°F15.0°C 31.4°F-0.3°C 35% Calm Calm 8.0 mph12.9 kmh 30.28 in1025.4 mb 0.00 in0.0 mm 0.00 in0.0 mm 0.00 in0.0 mm
02:04 PM 59.1°F15.1°C 31.5°F-0.3°C 35% 7.0 mph WNW11.3 kmh WNW 7.0 mph11.3 kmh 30.27 in1025.1 mb 0.00 in0.0 mm 0.00 in0.0 mm 0.00 in0.0 mm
02:06 PM 59.0°F15.0°C 30.7°F-0.7°C 34% 6.0 mph NW9.7 kmh NW 8.0 mph12.9 kmh 30.27 in1025.1 mb 0.00 in0.0 mm 0.00 in0.0 mm 0.00 in0.0 mm
02:08 PM 58.5°F14.7°C 31.0°F-0.6°C 35% 4.0 mph NW6.4 kmh NW 8.0 mph12.9 kmh 30.27 in1025.1 mb 0.00 in0.0 mm 0.00 in0.0 mm 0.00 in0.0 mm
02:10 PM 58.1°F14.5°C 31.3°F-0.4°C 36% 2.0 mph NW3.2 kmh NW 8.0 mph12.9 kmh 30.27 in1025.1 mb 0.00 in0.0 mm 0.00 in0.0 mm 0.00 in0.0 mm
02:12 PM 58.2°F14.6°C 31.4°F-0.3°C 36% 3.0 mph NW4.8 kmh NW 8.0 mph12.9 kmh 30.27 in1025.1 mb 0.00 in0.0 mm 0.00 in0.0 mm 0.00 in0.0 mm
02:14 PM 58.3°F14.6°C 31.5°F-0.3°C 36% 4.0 mph NW6.4 kmh NW 8.0 mph12.9 kmh 30.27 in1025.1 mb 0.00 in0.0 mm 0.00 in0.0 mm 0.00 in0.0 mm
02:16 PM 58.2°F14.6°C 30.7°F-0.7°C 35% 1.0 mph NW1.6 kmh NW 8.0 mph12.9 kmh 30.26 in1024.7 mb 0.00 in0.0 mm 0.00 in0.0 mm 0.00 in0.0 mm
02:18 PM 58.2°F14.6°C 31.4°F-0.3°C 36% 3.0 mph NW4.8 kmh NW 8.0 mph12.9 kmh 30.26 in1024.7 mb 0.00 in0.0 mm 0.00 in0.0 mm 0.00 in0.0 mm
02:20 PM 58.3°F14.6°C 31.5°F-0.3°C 36% 4.0 mph NW6.4 kmh NW 8.0 mph12.9 kmh 30.26 in1024.7 mb 0.00 in0.0 mm 0.00 in0.0 mm 0.00 in0.0 mm
02:22 PM 58.3°F14.6°C 31.5°F-0.3°C 36% 2.0 mph NNW3.2 kmh NNW 8.0 mph12.9 kmh 30.26 in1024.7 mb 0.00 in0.0 mm 0.00 in0.0 mm 0.00 in0.0 mm
02:24 PM 58.4°F14.7°C 31.6°F-0.2°C 36% 3.0 mph NNW4.8 kmh NNW 8.0 mph12.9 kmh 30.26 in1024.7 mb 0.00 in0.0 mm 0.00 in0.0 mm 0.00 in0.0 mm
02:26 PM 58.4°F14.7°C 30.9°F-0.6°C 35% 3.0 mph NW4.8 kmh NW 8.0 mph12.9 kmh 30.26 in1024.7 mb 0.00 in0.0 mm 0.00 in0.0 mm 0.00 in0.0 mm
02:28 PM 58.3°F14.6°C 31.5°F-0.3°C 36% 2.0 mph NW3.2 kmh NW 8.0 mph12.9 kmh 30.26 in1024.7 mb 0.00 in0.0 mm 0.00 in0.0 mm 0.00 in0.0 mm
02:30 PM 58.3°F14.6°C 31.5°F-0.3°C 36% 2.0 mph NW3.2 kmh NW 8.0 mph12.9 kmh 30.26 in1024.7 mb 0.00 in0.0 mm 0.00 in0.0 mm 0.00 in0.0 mm
02:32 PM 58.6°F14.8°C 31.8°F-0.1°C 36% 3.0 mph NW4.8 kmh NW 8.0 mph12.9 kmh 30.26 in1024.7 mb 0.00 in0.0 mm 0.00 in0.0 mm 0.00 in0.0 mm
02:34 PM 58.9°F14.9°C 32.0°F0.0°C 36% 3.0 mph W4.8 kmh W 6.0 mph9.7 kmh 30.26 in1024.7 mb 0.00 in0.0 mm 0.00 in0.0 mm 0.00 in0.0 mm
02:36 PM 59.0°F15.0°C 31.4°F-0.3°C 35% 3.0 mph WSW4.8 kmh WSW 6.0 mph9.7 kmh 30.26 in1024.7 mb 0.00 in0.0 mm 0.00 in0.0 mm 0.00 in0.0 mm
02:38 PM 59.0°F15.0°C 31.4°F-0.3°C 35% 4.0 mph W6.4 kmh W 6.0 mph9.7 kmh 30.26 in1024.7 mb 0.00 in0.0 mm 0.00 in0.0 mm 0.00 in0.0 mm
02:40 PM 59.0°F15.0°C 31.4°F-0.3°C 35% 1.0 mph W1.6 kmh W 6.0 mph9.7 kmh 30.26 in1024.7 mb 0.00 in0.0 mm 0.00 in0.0 mm 0.00 in0.0 mm
02:41 PM 59.2°F15.1°C 32.3°F0.2°C 36% 1.0 mph W1.6 kmh W 6.0 mph9.7 kmh 30.26 in1024.7 mb 0.00 in0.0 mm 0.00 in0.0 mm 0.00 in0.0 mm
02:43 PM 59.5°F15.3°C 32.6°F0.3°C 36% 3.0 mph W4.8 kmh W 6.0 mph9.7 kmh 30.26 in1024.7 mb 0.00 in0.0 mm 0.00 in0.0 mm 0.00 in0.0 mm
02:46 PM 59.6°F15.3°C 31.2°F-0.4°C 34% 1.0 mph W1.6 kmh W 6.0 mph9.7 kmh 30.26 in1024.7 mb 0.00 in0.0 mm 0.00 in0.0 mm 0.00 in0.0 mm
02:48 PM 59.8°F15.4°C 32.1°F0.1°C 35% 1.0 mph W1.6 kmh W 6.0 mph9.7 kmh 30.25 in1024.4 mb 0.00 in0.0 mm 0.00 in0.0 mm 0.00 in0.0 mm
02:49 PM 59.9°F15.5°C 31.5°F-0.3°C 34% 2.0 mph W3.2 kmh W 6.0 mph9.7 kmh 30.25 in1024.4 mb 0.00 in0.0 mm 0.00 in0.0 mm 0.00 in0.0 mm
02:51 PM 60.2°F15.7°C 31.8°F-0.1°C 34% 3.0 mph E4.8 kmh E 6.0 mph9.7 kmh 30.25 in1024.4 mb 0.00 in0.0 mm 0.00 in0.0 mm 0.00 in0.0 mm
02:53 PM 60.3°F15.7°C 31.1°F-0.5°C 33% 3.0 mph E4.8 kmh E 6.0 mph9.7 kmh 30.26 in1024.7 mb 0.00 in0.0 mm 0.00 in0.0 mm 0.00 in0.0 mm
02:56 PM 60.1°F15.6°C 30.9°F-0.6°C 33% 2.0 mph E3.2 kmh E 6.0 mph9.7 kmh 30.26 in1024.7 mb 0.00 in0.0 mm 0.00 in0.0 mm 0.00 in0.0 mm
02:58 PM 60.0°F15.6°C 31.6°F-0.2°C 34% 4.0 mph ENE6.4 kmh ENE 6.0 mph9.7 kmh 30.25 in1024.4 mb 0.00 in0.0 mm 0.00 in0.0 mm 0.00 in0.0 mm
03:00 PM 59.8°F15.4°C 31.4°F-0.3°C 34% Calm Calm 6.0 mph9.7 kmh 30.26 in1024.7 mb 0.00 in0.0 mm 0.00 in0.0 mm 0.00 in0.0 mm
03:02 PM 59.8°F15.4°C 30.7°F-0.7°C 33% 1.0 mph ENE1.6 kmh ENE 1.0 mph1.6 kmh 30.26 in1024.7 mb 0.00 in0.0 mm 0.00 in0.0 mm 0.00 in0.0 mm
03:04 PM 59.8°F15.4°C 31.4°F-0.3°C 34% 1.0 mph ENE1.6 kmh ENE 1.0 mph1.6 kmh 30.26 in1024.7 mb 0.00 in0.0 mm 0.00 in0.0 mm 0.00 in0.0 mm
03:06 PM 60.0°F15.6°C 30.8°F-0.7°C 33% 2.0 mph ENE3.2 kmh ENE 2.0 mph3.2 kmh 30.25 in1024.4 mb 0.00 in0.0 mm 0.00 in0.0 mm 0.00 in0.0 mm
03:08 PM 60.1°F15.6°C 31.7°F-0.2°C 34% 3.0 mph NW4.8 kmh NW 3.0 mph4.8 kmh 30.25 in1024.4 mb 0.00 in0.0 mm 0.00 in0.0 mm 0.00 in0.0 mm
03:10 PM 60.3°F15.7°C 31.8°F-0.1°C 34% 1.0 mph WNW1.6 kmh WNW 3.0 mph4.8 kmh 30.25 in1024.4 mb 0.00 in0.0 mm 0.00 in0.0 mm 0.00 in0.0 mm
03:12 PM 60.6°F15.9°C 31.4°F-0.3°C 33% 1.0 mph NW1.6 kmh NW 3.0 mph4.8 kmh 30.25 in1024.4 mb 0.00 in0.0 mm 0.00 in0.0 mm 0.00 in0.0 mm
03:14 PM 60.8°F16.0°C 32.3°F0.2°C 34% 2.0 mph NE3.2 kmh NE 5.0 mph8.0 kmh 30.25 in1024.4 mb 0.00 in0.0 mm 0.00 in0.0 mm 0.00 in0.0 mm
03:16 PM 60.9°F16.1°C 31.6°F-0.2°C 33% 1.0 mph NE1.6 kmh NE 5.0 mph8.0 kmh 30.25 in1024.4 mb 0.00 in0.0 mm 0.00 in0.0 mm 0.00 in0.0 mm
03:18 PM 60.9°F16.1°C 30.9°F-0.6°C 32% 3.0 mph NE4.8 kmh NE 5.0 mph8.0 kmh 30.25 in1024.4 mb 0.00 in0.0 mm 0.00 in0.0 mm 0.00 in0.0 mm
03:20 PM 60.8°F16.0°C 30.8°F-0.7°C 32% 1.0 mph NE1.6 kmh NE 5.0 mph8.0 kmh 30.25 in1024.4 mb 0.00 in0.0 mm 0.00 in0.0 mm 0.00 in0.0 mm
03:22 PM 60.7°F15.9°C 30.7°F-0.7°C 32% 2.0 mph NE3.2 kmh NE 5.0 mph8.0 kmh 30.25 in1024.4 mb 0.00 in0.0 mm 0.00 in0.0 mm 0.00 in0.0 mm
03:24 PM 60.5°F15.8°C 31.3°F-0.4°C 33% 1.0 mph NE1.6 kmh NE 5.0 mph8.0 kmh 30.25 in1024.4 mb 0.00 in0.0 mm 0.00 in0.0 mm 0.00 in0.0 mm
03:26 PM 60.5°F15.8°C 31.3°F-0.4°C 33% Calm Calm 5.0 mph8.0 kmh 30.25 in1024.4 mb 0.00 in0.0 mm 0.00 in0.0 mm 0.00 in0.0 mm
03:28 PM 60.5°F15.8°C 31.3°F-0.4°C 33% 2.0 mph NNE3.2 kmh NNE 5.0 mph8.0 kmh 30.25 in1024.4 mb 0.00 in0.0 mm 0.00 in0.0 mm 0.00 in0.0 mm
03:30 PM 60.5°F15.8°C 31.3°F-0.4°C 33% 3.0 mph N4.8 kmh N 5.0 mph8.0 kmh 30.25 in1024.4 mb 0.00 in0.0 mm 0.00 in0.0 mm 0.00 in0.0 mm
03:32 PM 60.5°F15.8°C 31.3°F-0.4°C 33% 2.0 mph N3.2 kmh N 5.0 mph8.0 kmh 30.25 in1024.4 mb 0.00 in0.0 mm 0.00 in0.0 mm 0.00 in0.0 mm
03:34 PM 60.4°F15.8°C 30.4°F-0.9°C 32% 1.0 mph N1.6 kmh N 3.0 mph4.8 kmh 30.25 in1024.4 mb 0.00 in0.0 mm 0.00 in0.0 mm 0.00 in0.0 mm
03:36 PM 60.4°F15.8°C 31.2°F-0.4°C 33% Calm Calm 3.0 mph4.8 kmh 30.25 in1024.4 mb 0.00 in0.0 mm 0.00 in0.0 mm 0.00 in0.0 mm
03:38 PM 60.6°F15.9°C 31.4°F-0.3°C 33% Calm Calm 3.0 mph4.8 kmh 30.25 in1024.4 mb 0.00 in0.0 mm 0.00 in0.0 mm 0.00 in0.0 mm
03:40 PM 60.8°F16.0°C 31.5°F-0.3°C 33% Calm Calm 3.0 mph4.8 kmh 30.25 in1024.4 mb 0.00 in0.0 mm 0.00 in0.0 mm 0.00 in0.0 mm
03:42 PM 61.1°F16.2°C 31.0°F-0.6°C 32% Calm Calm 3.0 mph4.8 kmh 30.25 in1024.4 mb 0.00 in0.0 mm 0.00 in0.0 mm 0.00 in0.0 mm
03:43 PM 61.3°F16.3°C 31.2°F-0.4°C 32% Calm Calm 3.0 mph4.8 kmh 30.25 in1024.4 mb 0.00 in0.0 mm 0.00 in0.0 mm 0.00 in0.0 mm
03:46 PM 61.6°F16.4°C 31.5°F-0.3°C 32% Calm Calm 3.0 mph4.8 kmh 30.25 in1024.4 mb 0.00 in0.0 mm 0.00 in0.0 mm 0.00 in0.0 mm
03:48 PM 61.8°F16.6°C 30.9°F-0.6°C 31% 2.0 mph ENE3.2 kmh ENE 3.0 mph4.8 kmh 30.25 in1024.4 mb 0.00 in0.0 mm 0.00 in0.0 mm 0.00 in0.0 mm
03:50 PM 61.8°F16.6°C 30.9°F-0.6°C 31% 1.0 mph ENE1.6 kmh ENE 3.0 mph4.8 kmh 30.25 in1024.4 mb 0.00 in0.0 mm 0.00 in0.0 mm 0.00 in0.0 mm
03:52 PM 61.6°F16.4°C 30.7°F-0.7°C 31% Calm Calm 3.0 mph4.8 kmh 30.25 in1024.4 mb 0.00 in0.0 mm 0.00 in0.0 mm 0.00 in0.0 mm
03:54 PM 61.7°F16.5°C 31.6°F-0.2°C 32% Calm Calm 3.0 mph4.8 kmh 30.25 in1024.4 mb 0.00 in0.0 mm 0.00 in0.0 mm 0.00 in0.0 mm
03:56 PM 61.7°F16.5°C 30.8°F-0.7°C 31% 3.0 mph E4.8 kmh E 3.0 mph4.8 kmh 30.25 in1024.4 mb 0.00 in0.0 mm 0.00 in0.0 mm 0.00 in0.0 mm
03:58 PM 61.7°F16.5°C 30.8°F-0.7°C 31% 1.0 mph E1.6 kmh E 3.0 mph4.8 kmh 30.25 in1024.4 mb 0.00 in0.0 mm 0.00 in0.0 mm 0.00 in0.0 mm
04:00 PM 61.6°F16.4°C 30.7°F-0.7°C 31% 4.0 mph E6.4 kmh E 4.0 mph6.4 kmh 30.25 in1024.4 mb 0.00 in0.0 mm 0.00 in0.0 mm 0.00 in0.0 mm
04:02 PM 61.2°F16.2°C 30.4°F-0.9°C 31% 3.0 mph ENE4.8 kmh ENE 4.0 mph6.4 kmh 30.25 in1024.4 mb 0.00 in0.0 mm 0.00 in0.0 mm 0.00 in0.0 mm
04:04 PM 60.8°F16.0°C 30.0°F-1.1°C 31% 2.0 mph ENE3.2 kmh ENE 4.0 mph6.4 kmh 30.25 in1024.4 mb 0.00 in0.0 mm 0.00 in0.0 mm 0.00 in0.0 mm
04:06 PM 60.5°F15.8°C 30.5°F-0.8°C 32% Calm Calm 4.0 mph6.4 kmh 30.25 in1024.4 mb 0.00 in0.0 mm 0.00 in0.0 mm 0.00 in0.0 mm
04:08 PM 60.4°F15.8°C 30.4°F-0.9°C 32% 1.0 mph E1.6 kmh E 4.0 mph6.4 kmh 30.24 in1024.0 mb 0.00 in0.0 mm 0.00 in0.0 mm 0.00 in0.0 mm
04:10 PM 60.3°F15.7°C 30.3°F-0.9°C 32% 1.0 mph E1.6 kmh E 4.0 mph6.4 kmh 30.25 in1024.4 mb 0.00 in0.0 mm 0.00 in0.0 mm 0.00 in0.0 mm
04:12 PM 60.4°F15.8°C 31.2°F-0.4°C 33% 3.0 mph E4.8 kmh E 4.0 mph6.4 kmh 30.24 in1024.0 mb 0.00 in0.0 mm 0.00 in0.0 mm 0.00 in0.0 mm
04:14 PM 60.5°F15.8°C 30.5°F-0.8°C 32% 5.0 mph E8.0 kmh E 5.0 mph8.0 kmh 30.24 in1024.0 mb 0.00 in0.0 mm 0.00 in0.0 mm 0.00 in0.0 mm
04:16 PM 60.3°F15.7°C 30.3°F-0.9°C 32% 2.0 mph E3.2 kmh E 5.0 mph8.0 kmh 30.24 in1024.0 mb 0.00 in0.0 mm 0.00 in0.0 mm 0.00 in0.0 mm
04:18 PM 60.1°F15.6°C 30.2°F-1.0°C 32% 4.0 mph E6.4 kmh E 7.0 mph11.3 kmh 30.24 in1024.0 mb 0.00 in0.0 mm 0.00 in0.0 mm 0.00 in0.0 mm
04:20 PM 59.9°F15.5°C 30.0°F-1.1°C 32% 2.0 mph E3.2 kmh E 7.0 mph11.3 kmh 30.24 in1024.0 mb 0.00 in0.0 mm 0.00 in0.0 mm 0.00 in0.0 mm
04:21 PM 59.8°F15.4°C 30.7°F-0.7°C 33% 6.0 mph E9.7 kmh E 7.0 mph11.3 kmh 30.24 in1024.0 mb 0.00 in0.0 mm 0.00 in0.0 mm 0.00 in0.0 mm
04:23 PM 59.6°F15.3°C 30.5°F-0.8°C 33% 2.0 mph E3.2 kmh E 7.0 mph11.3 kmh 30.25 in1024.4 mb 0.00 in0.0 mm 0.00 in0.0 mm 0.00 in0.0 mm
04:26 PM 59.4°F15.2°C 30.3°F-0.9°C 33% 3.0 mph E4.8 kmh E 7.0 mph11.3 kmh 30.25 in1024.4 mb 0.00 in0.0 mm 0.00 in0.0 mm 0.00 in0.0 mm
04:28 PM 59.4°F15.2°C 31.1°F-0.5°C 34% 1.0 mph E1.6 kmh E 7.0 mph11.3 kmh 30.24 in1024.0 mb 0.00 in0.0 mm 0.00 in0.0 mm 0.00 in0.0 mm
04:29 PM 59.3°F15.2°C 30.2°F-1.0°C 33% 3.0 mph E4.8 kmh E 7.0 mph11.3 kmh 30.24 in1024.0 mb 0.00 in0.0 mm 0.00 in0.0 mm 0.00 in0.0 mm
04:32 PM 59.2°F15.1°C 30.1°F-1.1°C 33% 3.0 mph E4.8 kmh E 7.0 mph11.3 kmh 30.24 in1024.0 mb 0.00 in0.0 mm 0.00 in0.0 mm 0.00 in0.0 mm
04:34 PM 59.2°F15.1°C 30.9°F-0.6°C 34% Calm Calm 4.0 mph6.4 kmh 30.24 in1024.0 mb 0.00 in0.0 mm 0.00 in0.0 mm 0.00 in0.0 mm
04:36 PM 59.3°F15.2°C 31.0°F-0.6°C 34% 2.0 mph E3.2 kmh E 4.0 mph6.4 kmh 30.24 in1024.0 mb 0.00 in0.0 mm 0.00 in0.0 mm 0.00 in0.0 mm
04:38 PM 59.3°F15.2°C 31.0°F-0.6°C 34% 1.0 mph E1.6 kmh E 4.0 mph6.4 kmh 30.24 in1024.0 mb 0.00 in0.0 mm 0.00 in0.0 mm 0.00 in0.0 mm
04:40 PM 59.4°F15.2°C 30.3°F-0.9°C 33% 3.0 mph E4.8 kmh E 4.0 mph6.4 kmh 30.24 in1024.0 mb 0.00 in0.0 mm 0.00 in0.0 mm 0.00 in0.0 mm
04:42 PM 59.3°F15.2°C 31.0°F-0.6°C 34% 2.0 mph E3.2 kmh E 4.0 mph6.4 kmh 30.24 in1024.0 mb 0.00 in0.0 mm 0.00 in0.0 mm 0.00 in0.0 mm
04:44 PM 59.1°F15.1°C 30.8°F-0.7°C 34% 1.0 mph E1.6 kmh E 4.0 mph6.4 kmh 30.24 in1024.0 mb 0.00 in0.0 mm 0.00 in0.0 mm 0.00 in0.0 mm
04:46 PM 59.1°F15.1°C 30.1°F-1.1°C 33% 4.0 mph E6.4 kmh E 4.0 mph6.4 kmh 30.24 in1024.0 mb 0.00 in0.0 mm 0.00 in0.0 mm 0.00 in0.0 mm
04:48 PM 59.0°F15.0°C 30.7°F-0.7°C 34% 1.0 mph ENE1.6 kmh ENE 4.0 mph6.4 kmh 30.24 in1024.0 mb 0.00 in0.0 mm 0.00 in0.0 mm 0.00 in0.0 mm
04:50 PM 58.9°F14.9°C 30.6°F-0.8°C 34% 3.0 mph ENE4.8 kmh ENE 4.0 mph6.4 kmh 30.24 in1024.0 mb 0.00 in0.0 mm 0.00 in0.0 mm 0.00 in0.0 mm
04:52 PM 58.9°F14.9°C 30.6°F-0.8°C 34% 3.0 mph ENE4.8 kmh ENE 5.0 mph8.0 kmh 30.24 in1024.0 mb 0.00 in0.0 mm 0.00 in0.0 mm 0.00 in0.0 mm
04:54 PM 58.7°F14.8°C 30.4°F-0.9°C 34% 2.0 mph ENE3.2 kmh ENE 5.0 mph8.0 kmh 30.24 in1024.0 mb 0.00 in0.0 mm 0.00 in0.0 mm 0.00 in0.0 mm
04:56 PM 58.7°F14.8°C 31.1°F-0.5°C 35% 1.0 mph ENE1.6 kmh ENE 5.0 mph8.0 kmh 30.24 in1024.0 mb 0.00 in0.0 mm 0.00 in0.0 mm 0.00 in0.0 mm
04:58 PM 58.6°F14.8°C 30.3°F-0.9°C 34% 3.0 mph ENE4.8 kmh ENE 5.0 mph8.0 kmh 30.24 in1024.0 mb 0.00 in0.0 mm 0.00 in0.0 mm 0.00 in0.0 mm
05:00 PM 58.4°F14.7°C 30.9°F-0.6°C 35% 3.0 mph ENE4.8 kmh ENE 5.0 mph8.0 kmh 30.24 in1024.0 mb 0.00 in0.0 mm 0.00 in0.0 mm 0.00 in0.0 mm
05:02 PM 58.3°F14.6°C 30.8°F-0.7°C 35% 2.0 mph ENE3.2 kmh ENE 5.0 mph8.0 kmh 30.24 in1024.0 mb 0.00 in0.0 mm 0.00 in0.0 mm 0.00 in0.0 mm
05:03 PM 58.1°F14.5°C 30.6°F-0.8°C 35% 3.0 mph E4.8 kmh E 4.0 mph6.4 kmh 30.23 in1023.7 mb 0.00 in0.0 mm 0.00 in0.0 mm 0.00 in0.0 mm
05:06 PM 57.9°F14.4°C 31.1°F-0.5°C 36% 1.0 mph E1.6 kmh E 4.0 mph6.4 kmh 30.24 in1024.0 mb 0.00 in0.0 mm 0.00 in0.0 mm 0.00 in0.0 mm
05:08 PM 57.8°F14.3°C 31.0°F-0.6°C 36% 5.0 mph ENE8.0 kmh ENE 5.0 mph8.0 kmh 30.24 in1024.0 mb 0.00 in0.0 mm 0.00 in0.0 mm 0.00 in0.0 mm
05:09 PM 57.6°F14.2°C 30.9°F-0.6°C 36% 3.0 mph E4.8 kmh E 5.0 mph8.0 kmh 30.24 in1024.0 mb 0.00 in0.0 mm 0.00 in0.0 mm 0.00 in0.0 mm
05:12 PM 57.4°F14.1°C 30.7°F-0.7°C 36% 3.0 mph E4.8 kmh E 5.0 mph8.0 kmh 30.24 in1024.0 mb 0.00 in0.0 mm 0.00 in0.0 mm 0.00 in0.0 mm
05:13 PM 57.2°F14.0°C 30.5°F-0.8°C 36% 2.0 mph E3.2 kmh E 5.0 mph8.0 kmh 30.24 in1024.0 mb 0.00 in0.0 mm 0.00 in0.0 mm 0.00 in0.0 mm
05:16 PM 57.0°F13.9°C 30.3°F-0.9°C 36% 3.0 mph E4.8 kmh E 5.0 mph8.0 kmh 30.24 in1024.0 mb 0.00 in0.0 mm 0.00 in0.0 mm 0.00 in0.0 mm
05:18 PM 56.9°F13.8°C 30.9°F-0.6°C 37% 3.0 mph E4.8 kmh E 5.0 mph8.0 kmh 30.24 in1024.0 mb 0.00 in0.0 mm 0.00 in0.0 mm 0.00 in0.0 mm
05:20 PM 56.7°F13.7°C 30.7°F-0.7°C 37% 2.0 mph E3.2 kmh E 5.0 mph8.0 kmh 30.24 in1024.0 mb 0.00 in0.0 mm 0.00 in0.0 mm 0.00 in0.0 mm
05:22 PM 56.5°F13.6°C 30.6°F-0.8°C 37% 1.0 mph E1.6 kmh E 5.0 mph8.0 kmh 30.24 in1024.0 mb 0.00 in0.0 mm 0.00 in0.0 mm 0.00 in0.0 mm
05:24 PM 56.4°F13.6°C 30.5°F-0.8°C 37% 2.0 mph E3.2 kmh E 5.0 mph8.0 kmh 30.24 in1024.0 mb 0.00 in0.0 mm 0.00 in0.0 mm 0.00 in0.0 mm
05:26 PM 56.2°F13.4°C 31.0°F-0.6°C 38% 2.0 mph E3.2 kmh E 5.0 mph8.0 kmh 30.24 in1024.0 mb 0.00 in0.0 mm 0.00 in0.0 mm 0.00 in0.0 mm
05:28 PM 56.1°F13.4°C 30.9°F-0.6°C 38% 3.0 mph E4.8 kmh E 5.0 mph8.0 kmh 30.24 in1024.0 mb 0.00 in0.0 mm 0.00 in0.0 mm 0.00 in0.0 mm
05:30 PM 55.9°F13.3°C 30.7°F-0.7°C 38% 3.0 mph E4.8 kmh E 5.0 mph8.0 kmh 30.24 in1024.0 mb 0.00 in0.0 mm 0.00 in0.0 mm 0.00 in0.0 mm
05:32 PM 55.7°F13.2°C 30.5°F-0.8°C 38% 1.0 mph E1.6 kmh E 5.0 mph8.0 kmh 30.24 in1024.0 mb 0.00 in0.0 mm 0.00 in0.0 mm 0.00 in0.0 mm
05:34 PM 55.6°F13.1°C 30.4°F-0.9°C 38% 2.0 mph E3.2 kmh E 2.0 mph3.2 kmh 30.24 in1024.0 mb 0.00 in0.0 mm 0.00 in0.0 mm 0.00 in0.0 mm
05:36 PM 55.4°F13.0°C 30.9°F-0.6°C 39% 2.0 mph E3.2 kmh E 2.0 mph3.2 kmh 30.24 in1024.0 mb 0.00 in0.0 mm 0.00 in0.0 mm 0.00 in0.0 mm
05:38 PM 55.3°F12.9°C 30.8°F-0.7°C 39% Calm Calm 2.0 mph3.2 kmh 30.24 in1024.0 mb 0.00 in0.0 mm 0.00 in0.0 mm 0.00 in0.0 mm
05:40 PM 55.1°F12.8°C 30.6°F-0.8°C 39% 1.0 mph E1.6 kmh E 2.0 mph3.2 kmh 30.24 in1024.0 mb 0.00 in0.0 mm 0.00 in0.0 mm 0.00 in0.0 mm
05:42 PM 54.9°F12.7°C 30.4°F-0.9°C 39% 2.0 mph E3.2 kmh E 3.0 mph4.8 kmh 30.24 in1024.0 mb 0.00 in0.0 mm 0.00 in0.0 mm 0.00 in0.0 mm
05:44 PM 54.8°F12.7°C 30.3°F-0.9°C 39% 1.0 mph E1.6 kmh E 3.0 mph4.8 kmh 30.24 in1024.0 mb 0.00 in0.0 mm 0.00 in0.0 mm 0.00 in0.0 mm
05:46 PM 54.6°F12.6°C 30.2°F-1.0°C 39% 3.0 mph E4.8 kmh E 4.0 mph6.4 kmh 30.24 in1024.0 mb 0.00 in0.0 mm 0.00 in0.0 mm 0.00 in0.0 mm
05:48 PM 54.4°F12.4°C 30.0°F-1.1°C 39% 3.0 mph E4.8 kmh E 4.0 mph6.4 kmh 30.24 in1024.0 mb 0.00 in0.0 mm 0.00 in0.0 mm 0.00 in0.0 mm
05:50 PM 54.3°F12.4°C 30.5°F-0.8°C 40% 3.0 mph E4.8 kmh E 4.0 mph6.4 kmh 30.24 in1024.0 mb 0.00 in0.0 mm 0.00 in0.0 mm 0.00 in0.0 mm
05:52 PM 54.2°F12.3°C 30.4°F-0.9°C 40% 3.0 mph E4.8 kmh E 5.0 mph8.0 kmh 30.24 in1024.0 mb 0.00 in0.0 mm 0.00 in0.0 mm 0.00 in0.0 mm
05:54 PM 54.1°F12.3°C 30.3°F-0.9°C 40% 2.0 mph E3.2 kmh E 5.0 mph8.0 kmh 30.24 in1024.0 mb 0.00 in0.0 mm 0.00 in0.0 mm 0.00 in0.0 mm
05:56 PM 54.0°F12.2°C 30.2°F-1.0°C 40% 3.0 mph E4.8 kmh E 5.0 mph8.0 kmh 30.24 in1024.0 mb 0.00 in0.0 mm 0.00 in0.0 mm 0.00 in0.0 mm
05:58 PM 53.9°F12.2°C 30.2°F-1.0°C 40% 2.0 mph E3.2 kmh E 5.0 mph8.0 kmh 30.24 in1024.0 mb 0.00 in0.0 mm 0.00 in0.0 mm 0.00 in0.0 mm
06:00 PM 53.8°F12.1°C 30.7°F-0.7°C 41% 2.0 mph E3.2 kmh E 5.0 mph8.0 kmh 30.24 in1024.0 mb 0.00 in0.0 mm 0.00 in0.0 mm 0.00 in0.0 mm
06:02 PM 53.7°F12.1°C 30.6°F-0.8°C 41% 1.0 mph E1.6 kmh E 5.0 mph8.0 kmh 30.24 in1024.0 mb 0.00 in0.0 mm 0.00 in0.0 mm 0.00 in0.0 mm
06:04 PM 53.6°F12.0°C 30.5°F-0.8°C 41% 2.0 mph E3.2 kmh E 3.0 mph4.8 kmh 30.23 in1023.7 mb 0.00 in0.0 mm 0.00 in0.0 mm 0.00 in0.0 mm
06:06 PM 53.4°F11.9°C 30.3°F-0.9°C 41% 3.0 mph E4.8 kmh E 3.0 mph4.8 kmh 30.24 in1024.0 mb 0.00 in0.0 mm 0.00 in0.0 mm 0.00 in0.0 mm
06:08 PM 53.3°F11.8°C 30.2°F-1.0°C 41% 2.0 mph E3.2 kmh E 4.0 mph6.4 kmh 30.24 in1024.0 mb 0.00 in0.0 mm 0.00 in0.0 mm 0.00 in0.0 mm
06:09 PM 53.2°F11.8°C 30.1°F-1.1°C 41% 2.0 mph E3.2 kmh E 4.0 mph6.4 kmh 30.23 in1023.7 mb 0.00 in0.0 mm 0.00 in0.0 mm 0.00 in0.0 mm
06:12 PM 53.1°F11.7°C 30.0°F-1.1°C 41% 2.0 mph E3.2 kmh E 4.0 mph6.4 kmh 30.24 in1024.0 mb 0.00 in0.0 mm 0.00 in0.0 mm 0.00 in0.0 mm
06:14 PM 53.0°F11.7°C 30.0°F-1.1°C 41% 2.0 mph E3.2 kmh E 4.0 mph6.4 kmh 30.23 in1023.7 mb 0.00 in0.0 mm 0.00 in0.0 mm 0.00 in0.0 mm
06:16 PM 53.0°F11.7°C 30.0°F-1.1°C 41% 3.0 mph E4.8 kmh E 4.0 mph6.4 kmh 30.23 in1023.7 mb 0.00 in0.0 mm 0.00 in0.0 mm 0.00 in0.0 mm
06:18 PM 52.9°F11.6°C 29.9°F-1.2°C 41% 2.0 mph E3.2 kmh E 4.0 mph6.4 kmh 30.23 in1023.7 mb 0.00 in0.0 mm 0.00 in0.0 mm 0.00 in0.0 mm
06:20 PM 52.9°F11.6°C 29.9°F-1.2°C 41% 2.0 mph E3.2 kmh E 4.0 mph6.4 kmh 30.23 in1023.7 mb 0.00 in0.0 mm 0.00 in0.0 mm 0.00 in0.0 mm
06:22 PM 52.9°F11.6°C 29.9°F-1.2°C 41% 3.0 mph E4.8 kmh E 4.0 mph6.4 kmh 30.23 in1023.7 mb 0.00 in0.0 mm 0.00 in0.0 mm 0.00 in0.0 mm
06:24 PM 52.8°F11.6°C 29.8°F-1.2°C 41% 2.0 mph E3.2 kmh E 4.0 mph6.4 kmh 30.23 in1023.7 mb 0.00 in0.0 mm 0.00 in0.0 mm 0.00 in0.0 mm
06:26 PM 52.8°F11.6°C 29.8°F-1.2°C 41% 2.0 mph E3.2 kmh E 4.0 mph6.4 kmh 30.23 in1023.7 mb 0.00 in0.0 mm 0.00 in0.0 mm 0.00 in0.0 mm
06:28 PM 52.8°F11.6°C 29.8°F-1.2°C 41% 2.0 mph E3.2 kmh E 4.0 mph6.4 kmh 30.24 in1024.0 mb 0.00 in0.0 mm 0.00 in0.0 mm 0.00 in0.0 mm
06:30 PM 52.9°F11.6°C 29.9°F-1.2°C 41% 2.0 mph E3.2 kmh E 4.0 mph6.4 kmh 30.23 in1023.7 mb 0.00 in0.0 mm 0.00 in0.0 mm 0.00 in0.0 mm
06:32 PM 52.8°F11.6°C 29.8°F-1.2°C 41% 3.0 mph E4.8 kmh E 3.0 mph4.8 kmh 30.23 in1023.7 mb 0.00 in0.0 mm 0.00 in0.0 mm 0.00 in0.0 mm
06:34 PM 52.8°F11.6°C 29.8°F-1.2°C 41% 2.0 mph E3.2 kmh E 3.0 mph4.8 kmh 30.23 in1023.7 mb 0.00 in0.0 mm 0.00 in0.0 mm 0.00 in0.0 mm
06:36 PM 52.7°F11.5°C 29.7°F-1.3°C 41% 2.0 mph E3.2 kmh E 3.0 mph4.8 kmh 30.23 in1023.7 mb 0.00 in0.0 mm 0.00 in0.0 mm 0.00 in0.0 mm
06:38 PM 52.7°F11.5°C 29.7°F-1.3°C 41% 3.0 mph E4.8 kmh E 4.0 mph6.4 kmh 30.23 in1023.7 mb 0.00 in0.0 mm 0.00 in0.0 mm 0.00 in0.0 mm
06:40 PM 52.7°F11.5°C 29.7°F-1.3°C 41% 2.0 mph E3.2 kmh E 4.0 mph6.4 kmh 30.23 in1023.7 mb 0.00 in0.0 mm 0.00 in0.0 mm 0.00 in0.0 mm
06:41 PM 52.7°F11.5°C 29.7°F-1.3°C 41% 1.0 mph E1.6 kmh E 4.0 mph6.4 kmh 30.23 in1023.7 mb 0.00 in0.0 mm 0.00 in0.0 mm 0.00 in0.0 mm
06:44 PM 52.7°F11.5°C 29.7°F-1.3°C 41% 2.0 mph E3.2 kmh E 4.0 mph6.4 kmh 30.23 in1023.7 mb 0.00 in0.0 mm 0.00 in0.0 mm 0.00 in0.0 mm
06:46 PM 52.7°F11.5°C 29.7°F-1.3°C 41% 1.0 mph E1.6 kmh E 4.0 mph6.4 kmh 30.23 in1023.7 mb 0.00 in0.0 mm 0.00 in0.0 mm 0.00 in0.0 mm
06:48 PM 52.7°F11.5°C 29.7°F-1.3°C 41% 2.0 mph E3.2 kmh E 4.0 mph6.4 kmh 30.23 in1023.7 mb 0.00 in0.0 mm 0.00 in0.0 mm 0.00 in0.0 mm
06:49 PM 52.6°F11.4°C 29.6°F-1.3°C 41% 2.0 mph E3.2 kmh E 4.0 mph6.4 kmh 30.23 in1023.7 mb 0.00 in0.0 mm 0.00 in0.0 mm 0.00 in0.0 mm
06:51 PM 52.6°F11.4°C 29.6°F-1.3°C 41% 2.0 mph E3.2 kmh E 4.0 mph6.4 kmh 30.23 in1023.7 mb 0.00 in0.0 mm 0.00 in0.0 mm 0.00 in0.0 mm
06:53 PM 52.6°F11.4°C 29.6°F-1.3°C 41% 3.0 mph E4.8 kmh E 4.0 mph6.4 kmh 30.23 in1023.7 mb 0.00 in0.0 mm 0.00 in0.0 mm 0.00 in0.0 mm
06:56 PM 52.6°F11.4°C 29.6°F-1.3°C 41% 2.0 mph E3.2 kmh E 4.0 mph6.4 kmh 30.23 in1023.7 mb 0.00 in0.0 mm 0.00 in0.0 mm 0.00 in0.0 mm
06:58 PM 52.6°F11.4°C 29.6°F-1.3°C 41% 3.0 mph E4.8 kmh E 4.0 mph6.4 kmh 30.23 in1023.7 mb 0.00 in0.0 mm 0.00 in0.0 mm 0.00 in0.0 mm
07:00 PM 52.6°F11.4°C 29.6°F-1.3°C 41% 2.0 mph E3.2 kmh E 4.0 mph6.4 kmh 30.23 in1023.7 mb 0.00 in0.0 mm 0.00 in0.0 mm 0.00 in0.0 mm
07:02 PM 52.6°F11.4°C 29.6°F-1.3°C 41% 2.0 mph E3.2 kmh E 4.0 mph6.4 kmh 30.23 in1023.7 mb 0.00 in0.0 mm 0.00 in0.0 mm 0.00 in0.0 mm
07:04 PM 52.5°F11.4°C 29.5°F-1.4°C 41% 2.0 mph E3.2 kmh E 3.0 mph4.8 kmh 30.23 in1023.7 mb 0.00 in0.0 mm 0.00 in0.0 mm 0.00 in0.0 mm
07:06 PM 52.6°F11.4°C 29.6°F-1.3°C 41% 3.0 mph E4.8 kmh E 3.0 mph4.8 kmh 30.23 in1023.7 mb 0.00 in0.0 mm 0.00 in0.0 mm 0.00 in0.0 mm
07:08 PM 52.6°F11.4°C 29.6°F-1.3°C 41% 2.0 mph E3.2 kmh E 3.0 mph4.8 kmh 30.23 in1023.7 mb 0.00 in0.0 mm 0.00 in0.0 mm 0.00 in0.0 mm
07:10 PM 52.6°F11.4°C 29.6°F-1.3°C 41% 3.0 mph E4.8 kmh E 3.0 mph4.8 kmh 30.23 in1023.7 mb 0.00 in0.0 mm 0.00 in0.0 mm 0.00 in0.0 mm
07:12 PM 52.6°F11.4°C 29.6°F-1.3°C 41% 2.0 mph E3.2 kmh E 4.0 mph6.4 kmh 30.23 in1023.7 mb 0.00 in0.0 mm 0.00 in0.0 mm 0.00 in0.0 mm
07:14 PM 52.7°F11.5°C 29.7°F-1.3°C 41% 3.0 mph E4.8 kmh E 4.0 mph6.4 kmh 30.23 in1023.7 mb 0.00 in0.0 mm 0.00 in0.0 mm 0.00 in0.0 mm
07:16 PM 52.7°F11.5°C 29.7°F-1.3°C 41% 2.0 mph E3.2 kmh E 4.0 mph6.4 kmh 30.23 in1023.7 mb 0.00 in0.0 mm 0.00 in0.0 mm 0.00 in0.0 mm
07:18 PM 52.7°F11.5°C 29.7°F-1.3°C 41% 2.0 mph E3.2 kmh E 4.0 mph6.4 kmh 30.23 in1023.7 mb 0.00 in0.0 mm 0.00 in0.0 mm 0.00 in0.0 mm
07:20 PM 52.7°F11.5°C 29.7°F-1.3°C 41% 2.0 mph E3.2 kmh E 4.0 mph6.4 kmh 30.23 in1023.7 mb 0.00 in0.0 mm 0.00 in0.0 mm 0.00 in0.0 mm
07:22 PM 52.8°F11.6°C 29.8°F-1.2°C 41% 2.0 mph E3.2 kmh E 4.0 mph6.4 kmh 30.23 in1023.7 mb 0.00 in0.0 mm 0.00 in0.0 mm 0.00 in0.0 mm
07:24 PM 52.8°F11.6°C 29.8°F-1.2°C 41% 1.0 mph E1.6 kmh E 4.0 mph6.4 kmh 30.23 in1023.7 mb 0.00 in0.0 mm 0.00 in0.0 mm 0.00 in0.0 mm
07:26 PM 52.8°F11.6°C 29.8°F-1.2°C 41% 2.0 mph E3.2 kmh E 4.0 mph6.4 kmh 30.23 in1023.7 mb 0.00 in0.0 mm 0.00 in0.0 mm 0.00 in0.0 mm
07:28 PM 52.8°F11.6°C 29.8°F-1.2°C 41% 1.0 mph E1.6 kmh E 4.0 mph6.4 kmh 30.23 in1023.7 mb 0.00 in0.0 mm 0.00 in0.0 mm 0.00 in0.0 mm
07:30 PM 52.8°F11.6°C 29.8°F-1.2°C 41% 2.0 mph E3.2 kmh E 4.0 mph6.4 kmh 30.23 in1023.7 mb 0.00 in0.0 mm 0.00 in0.0 mm 0.00 in0.0 mm
07:32 PM 52.8°F11.6°C 29.8°F-1.2°C 41% 2.0 mph E3.2 kmh E 4.0 mph6.4 kmh 30.23 in1023.7 mb 0.00 in0.0 mm 0.00 in0.0 mm 0.00 in0.0 mm
07:34 PM 52.7°F11.5°C 29.7°F-1.3°C 41% 3.0 mph E4.8 kmh E 3.0 mph4.8 kmh 30.23 in1023.7 mb 0.00 in0.0 mm 0.00 in0.0 mm 0.00 in0.0 mm
07:36 PM 52.8°F11.6°C 29.8°F-1.2°C 41% 2.0 mph E3.2 kmh E 3.0 mph4.8 kmh 30.23 in1023.7 mb 0.00 in0.0 mm 0.00 in0.0 mm 0.00 in0.0 mm
07:38 PM 52.8°F11.6°C 29.8°F-1.2°C 41% 2.0 mph E3.2 kmh E 3.0 mph4.8 kmh 30.23 in1023.7 mb 0.00 in0.0 mm 0.00 in0.0 mm 0.00 in0.0 mm
07:40 PM 52.8°F11.6°C 29.8°F-1.2°C 41% 3.0 mph E4.8 kmh E 3.0 mph4.8 kmh 30.23 in1023.7 mb 0.00 in0.0 mm 0.00 in0.0 mm 0.00 in0.0 mm
07:42 PM 52.9°F11.6°C 29.3°F-1.5°C 40% 2.0 mph E3.2 kmh E 3.0 mph4.8 kmh 30.23 in1023.7 mb 0.00 in0.0 mm 0.00 in0.0 mm 0.00 in0.0 mm
07:43 PM 52.9°F11.6°C 29.3°F-1.5°C 40% 2.0 mph E3.2 kmh E 3.0 mph4.8 kmh 30.23 in1023.7 mb 0.00 in0.0 mm 0.00 in0.0 mm 0.00 in0.0 mm
07:46 PM 53.0°F11.7°C 29.3°F-1.5°C 40% 1.0 mph E1.6 kmh E 3.0 mph4.8 kmh 30.24 in1024.0 mb 0.00 in0.0 mm 0.00 in0.0 mm 0.00 in0.0 mm
07:48 PM 52.9°F11.6°C 29.3°F-1.5°C 40% 1.0 mph E1.6 kmh E 3.0 mph4.8 kmh 30.23 in1023.7 mb 0.00 in0.0 mm 0.00 in0.0 mm 0.00 in0.0 mm
07:49 PM 53.0°F11.7°C 29.3°F-1.5°C 40% 1.0 mph E1.6 kmh E 3.0 mph4.8 kmh 30.24 in1024.0 mb 0.00 in0.0 mm 0.00 in0.0 mm 0.00 in0.0 mm
07:51 PM 53.0°F11.7°C 29.3°F-1.5°C 40% Calm Calm 3.0 mph4.8 kmh 30.24 in1024.0 mb 0.00 in0.0 mm 0.00 in0.0 mm 0.00 in0.0 mm
07:54 PM 52.9°F11.6°C 29.3°F-1.5°C 40% Calm Calm 3.0 mph4.8 kmh 30.24 in1024.0 mb 0.00 in0.0 mm 0.00 in0.0 mm 0.00 in0.0 mm
07:56 PM 52.8°F11.6°C 29.2°F-1.6°C 40% Calm Calm 3.0 mph4.8 kmh 30.24 in1024.0 mb 0.00 in0.0 mm 0.00 in0.0 mm 0.00 in0.0 mm
07:58 PM 52.8°F11.6°C 29.2°F-1.6°C 40% Calm Calm 3.0 mph4.8 kmh 30.24 in1024.0 mb 0.00 in0.0 mm 0.00 in0.0 mm 0.00 in0.0 mm
08:00 PM 52.7°F11.5°C 29.1°F-1.6°C 40% Calm Calm 3.0 mph4.8 kmh 30.24 in1024.0 mb 0.00 in0.0 mm 0.00 in0.0 mm 0.00 in0.0 mm
08:02 PM 52.7°F11.5°C 29.1°F-1.6°C 40% Calm Calm -- 30.24 in1024.0 mb 0.00 in0.0 mm 0.00 in0.0 mm 0.00 in0.0 mm
08:04 PM 52.8°F11.6°C 29.2°F-1.6°C 40% Calm Calm 1.0 mph1.6 kmh 30.24 in1024.0 mb 0.00 in0.0 mm 0.00 in0.0 mm 0.00 in0.0 mm
08:06 PM 52.9°F11.6°C 29.3°F-1.5°C 40% Calm Calm 2.0 mph3.2 kmh 30.24 in1024.0 mb 0.00 in0.0 mm 0.00 in0.0 mm 0.00 in0.0 mm
08:08 PM 52.9°F11.6°C 29.3°F-1.5°C 40% 2.0 mph E3.2 kmh E 2.0 mph3.2 kmh 30.24 in1024.0 mb 0.00 in0.0 mm 0.00 in0.0 mm 0.00 in0.0 mm
08:10 PM 53.1°F11.7°C 29.4°F-1.4°C 40% 1.0 mph E1.6 kmh E 2.0 mph3.2 kmh 30.24 in1024.0 mb 0.00 in0.0 mm 0.00 in0.0 mm 0.00 in0.0 mm
08:12 PM 53.1°F11.7°C 29.4°F-1.4°C 40% 1.0 mph E1.6 kmh E 2.0 mph3.2 kmh 30.24 in1024.0 mb 0.00 in0.0 mm 0.00 in0.0 mm 0.00 in0.0 mm
08:14 PM 53.2°F11.8°C 29.5°F-1.4°C 40% 2.0 mph E3.2 kmh E 2.0 mph3.2 kmh 30.24 in1024.0 mb 0.00 in0.0 mm 0.00 in0.0 mm 0.00 in0.0 mm
08:16 PM 53.2°F11.8°C 29.5°F-1.4°C 40% 1.0 mph E1.6 kmh E 2.0 mph3.2 kmh 30.24 in1024.0 mb 0.00 in0.0 mm 0.00 in0.0 mm 0.00 in0.0 mm
08:18 PM 53.3°F11.8°C 29.0°F-1.7°C 39% 1.0 mph E1.6 kmh E 2.0 mph3.2 kmh 30.24 in1024.0 mb 0.00 in0.0 mm 0.00 in0.0 mm 0.00 in0.0 mm
08:20 PM 53.2°F11.8°C 28.9°F-1.7°C 39% 2.0 mph E3.2 kmh E 3.0 mph4.8 kmh 30.24 in1024.0 mb 0.00 in0.0 mm 0.00 in0.0 mm 0.00 in0.0 mm
08:22 PM 53.2°F11.8°C 29.5°F-1.4°C 40% 1.0 mph E1.6 kmh E 3.0 mph4.8 kmh 30.24 in1024.0 mb 0.00 in0.0 mm 0.00 in0.0 mm 0.00 in0.0 mm
08:24 PM 53.1°F11.7°C 29.4°F-1.4°C 40% 1.0 mph E1.6 kmh E 3.0 mph4.8 kmh 30.24 in1024.0 mb 0.00 in0.0 mm 0.00 in0.0 mm 0.00 in0.0 mm
08:26 PM 53.1°F11.7°C 29.4°F-1.4°C 40% 1.0 mph E1.6 kmh E 3.0 mph4.8 kmh 30.24 in1024.0 mb 0.00 in0.0 mm 0.00 in0.0 mm 0.00 in0.0 mm
08:28 PM 53.1°F11.7°C 29.4°F-1.4°C 40% Calm Calm 3.0 mph4.8 kmh 30.24 in1024.0 mb 0.00 in0.0 mm 0.00 in0.0 mm 0.00 in0.0 mm
08:30 PM 53.0°F11.7°C 29.3°F-1.5°C 40% Calm Calm 3.0 mph4.8 kmh 30.24 in1024.0 mb 0.00 in0.0 mm 0.00 in0.0 mm 0.00 in0.0 mm
08:32 PM 52.9°F11.6°C 29.3°F-1.5°C 40% Calm Calm 3.0 mph4.8 kmh 30.24 in1024.0 mb 0.00 in0.0 mm 0.00 in0.0 mm 0.00 in0.0 mm
08:34 PM 52.8°F11.6°C 29.2°F-1.6°C 40% 2.0 mph E3.2 kmh E 2.0 mph3.2 kmh 30.24 in1024.0 mb 0.00 in0.0 mm 0.00 in0.0 mm 0.00 in0.0 mm
08:36 PM 52.6°F11.4°C 29.6°F-1.3°C 41% 1.0 mph E1.6 kmh E 2.0 mph3.2 kmh 30.24 in1024.0 mb 0.00 in0.0 mm 0.00 in0.0 mm 0.00 in0.0 mm
08:38 PM 52.6°F11.4°C 29.6°F-1.3°C 41% 1.0 mph E1.6 kmh E 2.0 mph3.2 kmh 30.24 in1024.0 mb 0.00 in0.0 mm 0.00 in0.0 mm 0.00 in0.0 mm
08:40 PM 52.7°F11.5°C 29.7°F-1.3°C 41% 1.0 mph E1.6 kmh E 2.0 mph3.2 kmh 30.24 in1024.0 mb 0.00 in0.0 mm 0.00 in0.0 mm 0.00 in0.0 mm
08:42 PM 52.7°F11.5°C 29.7°F-1.3°C 41% 1.0 mph E1.6 kmh E 2.0 mph3.2 kmh 30.24 in1024.0 mb 0.00 in0.0 mm 0.00 in0.0 mm 0.00 in0.0 mm
08:43 PM 52.6°F11.4°C 29.6°F-1.3°C 41% 1.0 mph E1.6 kmh E 2.0 mph3.2 kmh 30.24 in1024.0 mb 0.00 in0.0 mm 0.00 in0.0 mm 0.00 in0.0 mm
08:46 PM 52.7°F11.5°C 29.7°F-1.3°C 41% 1.0 mph E1.6 kmh E 2.0 mph3.2 kmh 30.24 in1024.0 mb 0.00 in0.0 mm 0.00 in0.0 mm 0.00 in0.0 mm
08:48 PM 52.7°F11.5°C 29.7°F-1.3°C 41% 2.0 mph E3.2 kmh E 2.0 mph3.2 kmh 30.24 in1024.0 mb 0.00 in0.0 mm 0.00 in0.0 mm 0.00 in0.0 mm
08:50 PM 52.7°F11.5°C 29.7°F-1.3°C 41% 1.0 mph E1.6 kmh E 2.0 mph3.2 kmh 30.24 in1024.0 mb 0.00 in0.0 mm 0.00 in0.0 mm 0.00 in0.0 mm
08:52 PM 52.7°F11.5°C 29.7°F-1.3°C 41% 1.0 mph E1.6 kmh E 2.0 mph3.2 kmh 30.23 in1023.7 mb 0.00 in0.0 mm 0.00 in0.0 mm 0.00 in0.0 mm
08:54 PM 52.7°F11.5°C 29.7°F-1.3°C 41% Calm Calm 2.0 mph3.2 kmh 30.24 in1024.0 mb 0.00 in0.0 mm 0.00 in0.0 mm 0.00 in0.0 mm
08:56 PM 52.7°F11.5°C 29.7°F-1.3°C 41% 1.0 mph E1.6 kmh E 2.0 mph3.2 kmh 30.24 in1024.0 mb 0.00 in0.0 mm 0.00 in0.0 mm 0.00 in0.0 mm
08:58 PM 52.8°F11.6°C 29.8°F-1.2°C 41% Calm Calm 2.0 mph3.2 kmh 30.24 in1024.0 mb 0.00 in0.0 mm 0.00 in0.0 mm 0.00 in0.0 mm
09:00 PM 52.7°F11.5°C 29.7°F-1.3°C 41% Calm Calm 3.0 mph4.8 kmh 30.23 in1023.7 mb 0.00 in0.0 mm 0.00 in0.0 mm 0.00 in0.0 mm
09:02 PM 52.7°F11.5°C 29.7°F-1.3°C 41% 1.0 mph E1.6 kmh E 1.0 mph1.6 kmh 30.23 in1023.7 mb 0.00 in0.0 mm 0.00 in0.0 mm 0.00 in0.0 mm
09:04 PM 52.6°F11.4°C 29.6°F-1.3°C 41% 1.0 mph E1.6 kmh E 2.0 mph3.2 kmh 30.23 in1023.7 mb 0.00 in0.0 mm 0.00 in0.0 mm 0.00 in0.0 mm
09:06 PM 52.6°F11.4°C 29.6°F-1.3°C 41% 1.0 mph E1.6 kmh E 3.0 mph4.8 kmh 30.23 in1023.7 mb 0.00 in0.0 mm 0.00 in0.0 mm 0.00 in0.0 mm
09:08 PM 52.6°F11.4°C 29.6°F-1.3°C 41% 1.0 mph E1.6 kmh E 3.0 mph4.8 kmh 30.23 in1023.7 mb 0.00 in0.0 mm 0.00 in0.0 mm 0.00 in0.0 mm
09:10 PM 52.6°F11.4°C 29.6°F-1.3°C 41% 1.0 mph E1.6 kmh E 3.0 mph4.8 kmh 30.23 in1023.7 mb 0.00 in0.0 mm 0.00 in0.0 mm 0.00 in0.0 mm
09:12 PM 52.6°F11.4°C 29.6°F-1.3°C 41% 1.0 mph E1.6 kmh E 3.0 mph4.8 kmh 30.23 in1023.7 mb 0.00 in0.0 mm 0.00 in0.0 mm 0.00 in0.0 mm
09:14 PM 52.5°F11.4°C 29.5°F-1.4°C 41% 2.0 mph E3.2 kmh E 3.0 mph4.8 kmh 30.23 in1023.7 mb 0.00 in0.0 mm 0.00 in0.0 mm 0.00 in0.0 mm
09:16 PM 52.5°F11.4°C 29.5°F-1.4°C 41% 1.0 mph E1.6 kmh E 3.0 mph4.8 kmh 30.23 in1023.7 mb 0.00 in0.0 mm 0.00 in0.0 mm 0.00 in0.0 mm
09:18 PM 52.3°F11.3°C 29.3°F-1.5°C 41% 1.0 mph E1.6 kmh E 3.0 mph4.8 kmh 30.23 in1023.7 mb 0.00 in0.0 mm 0.00 in0.0 mm 0.00 in0.0 mm
09:20 PM 52.1°F11.2°C 29.7°F-1.3°C 42% 1.0 mph E1.6 kmh E 3.0 mph4.8 kmh 30.23 in1023.7 mb 0.00 in0.0 mm 0.00 in0.0 mm 0.00 in0.0 mm
09:22 PM 51.9°F11.1°C 29.6°F-1.3°C 42% 1.0 mph E1.6 kmh E 3.0 mph4.8 kmh 30.23 in1023.7 mb 0.00 in0.0 mm 0.00 in0.0 mm 0.00 in0.0 mm
09:24 PM 51.6°F10.9°C 29.3°F-1.5°C 42% 2.0 mph E3.2 kmh E 3.0 mph4.8 kmh 30.23 in1023.7 mb 0.00 in0.0 mm 0.00 in0.0 mm 0.00 in0.0 mm
09:26 PM 51.3°F10.7°C 29.6°F-1.3°C 43% 2.0 mph E3.2 kmh E 3.0 mph4.8 kmh 30.23 in1023.7 mb 0.00 in0.0 mm 0.00 in0.0 mm 0.00 in0.0 mm
09:28 PM 51.1°F10.6°C 29.4°F-1.4°C 43% 2.0 mph E3.2 kmh E 3.0 mph4.8 kmh 30.23 in1023.7 mb 0.00 in0.0 mm 0.00 in0.0 mm 0.00 in0.0 mm
09:30 PM 50.8°F10.4°C 29.7°F-1.3°C 44% 2.0 mph E3.2 kmh E 3.0 mph4.8 kmh 30.23 in1023.7 mb 0.00 in0.0 mm 0.00 in0.0 mm 0.00 in0.0 mm
09:31 PM 50.6°F10.3°C 30.1°F-1.1°C 45% 1.0 mph E1.6 kmh E 3.0 mph4.8 kmh 30.23 in1023.7 mb 0.00 in0.0 mm 0.00 in0.0 mm 0.00 in0.0 mm
09:33 PM 50.4°F10.2°C 29.9°F-1.2°C 45% Calm Calm 2.0 mph3.2 kmh 30.23 in1023.7 mb 0.00 in0.0 mm 0.00 in0.0 mm 0.00 in0.0 mm
09:36 PM 50.1°F10.1°C 30.1°F-1.1°C 46% 1.0 mph E1.6 kmh E 2.0 mph3.2 kmh 30.23 in1023.7 mb 0.00 in0.0 mm 0.00 in0.0 mm 0.00 in0.0 mm
09:38 PM 49.9°F9.9°C 30.0°F-1.1°C 46% 2.0 mph E3.2 kmh E 2.0 mph3.2 kmh 30.23 in1023.7 mb 0.00 in0.0 mm 0.00 in0.0 mm 0.00 in0.0 mm
09:40 PM 49.7°F9.8°C 30.3°F-0.9°C 47% 1.0 mph E1.6 kmh E 2.0 mph3.2 kmh 30.23 in1023.7 mb 0.00 in0.0 mm 0.00 in0.0 mm 0.00 in0.0 mm
09:41 PM 49.6°F9.8°C 30.2°F-1.0°C 47% 2.0 mph E3.2 kmh E 3.0 mph4.8 kmh 30.23 in1023.7 mb 0.00 in0.0 mm 0.00 in0.0 mm 0.00 in0.0 mm
09:44 PM 49.5°F9.7°C 30.1°F-1.1°C 47% 1.0 mph E1.6 kmh E 3.0 mph4.8 kmh 30.23 in1023.7 mb 0.00 in0.0 mm 0.00 in0.0 mm 0.00 in0.0 mm
09:46 PM 49.4°F9.7°C 30.6°F-0.8°C 48% 1.0 mph E1.6 kmh E 3.0 mph4.8 kmh 30.23 in1023.7 mb 0.00 in0.0 mm 0.00 in0.0 mm 0.00 in0.0 mm
09:48 PM 49.3°F9.6°C 30.5°F-0.8°C 48% Calm Calm 3.0 mph4.8 kmh 30.23 in1023.7 mb 0.00 in0.0 mm 0.00 in0.0 mm 0.00 in0.0 mm
09:50 PM 49.1°F9.5°C 30.3°F-0.9°C 48% 1.0 mph E1.6 kmh E 3.0 mph4.8 kmh 30.23 in1023.7 mb 0.00 in0.0 mm 0.00 in0.0 mm 0.00 in0.0 mm
09:52 PM 49.1°F9.5°C 30.8°F-0.7°C 49% 1.0 mph E1.6 kmh E 3.0 mph4.8 kmh 30.23 in1023.7 mb 0.00 in0.0 mm 0.00 in0.0 mm 0.00 in0.0 mm
09:54 PM 49.1°F9.5°C 30.8°F-0.7°C 49% 1.0 mph E1.6 kmh E 3.0 mph4.8 kmh 30.23 in1023.7 mb 0.00 in0.0 mm 0.00 in0.0 mm 0.00 in0.0 mm
09:56 PM 49.1°F9.5°C 30.8°F-0.7°C 49% 3.0 mph E4.8 kmh E 3.0 mph4.8 kmh 30.23 in1023.7 mb 0.00 in0.0 mm 0.00 in0.0 mm 0.00 in0.0 mm
09:58 PM 49.1°F9.5°C 30.8°F-0.7°C 49% 1.0 mph E1.6 kmh E 3.0 mph4.8 kmh 30.23 in1023.7 mb 0.00 in0.0 mm 0.00 in0.0 mm 0.00 in0.0 mm
10:00 PM 49.2°F9.6°C 30.9°F-0.6°C 49% 1.0 mph E1.6 kmh E 3.0 mph4.8 kmh 30.24 in1024.0 mb 0.00 in0.0 mm 0.00 in0.0 mm 0.00 in0.0 mm
10:02 PM 49.3°F9.6°C 31.0°F-0.6°C 49% 2.0 mph E3.2 kmh E 3.0 mph4.8 kmh 30.23 in1023.7 mb 0.00 in0.0 mm 0.00 in0.0 mm 0.00 in0.0 mm
10:04 PM 49.3°F9.6°C 30.5°F-0.8°C 48% 1.0 mph E1.6 kmh E 3.0 mph4.8 kmh 30.24 in1024.0 mb 0.00 in0.0 mm 0.00 in0.0 mm 0.00 in0.0 mm
10:06 PM 49.4°F9.7°C 30.6°F-0.8°C 48% 2.0 mph E3.2 kmh E 3.0 mph4.8 kmh 30.24 in1024.0 mb 0.00 in0.0 mm 0.00 in0.0 mm 0.00 in0.0 mm
10:08 PM 49.4°F9.7°C 30.6°F-0.8°C 48% 2.0 mph E3.2 kmh E 3.0 mph4.8 kmh 30.24 in1024.0 mb 0.00 in0.0 mm 0.00 in0.0 mm 0.00 in0.0 mm
10:10 PM 49.4°F9.7°C 30.6°F-0.8°C 48% 1.0 mph E1.6 kmh E 3.0 mph4.8 kmh 30.23 in1023.7 mb 0.00 in0.0 mm 0.00 in0.0 mm 0.00 in0.0 mm
10:12 PM 49.4°F9.7°C 30.6°F-0.8°C 48% 1.0 mph E1.6 kmh E 3.0 mph4.8 kmh 30.24 in1024.0 mb 0.00 in0.0 mm 0.00 in0.0 mm 0.00 in0.0 mm
10:14 PM 49.4°F9.7°C 30.6°F-0.8°C 48% 2.0 mph E3.2 kmh E 3.0 mph4.8 kmh 30.23 in1023.7 mb 0.00 in0.0 mm 0.00 in0.0 mm 0.00 in0.0 mm
10:16 PM 49.4°F9.7°C 30.6°F-0.8°C 48% 1.0 mph E1.6 kmh E 3.0 mph4.8 kmh 30.24 in1024.0 mb 0.00 in0.0 mm 0.00 in0.0 mm 0.00 in0.0 mm
10:18 PM 49.4°F9.7°C 30.6°F-0.8°C 48% 2.0 mph E3.2 kmh E 3.0 mph4.8 kmh 30.24 in1024.0 mb 0.00 in0.0 mm 0.00 in0.0 mm 0.00 in0.0 mm
10:20 PM 49.4°F9.7°C 30.6°F-0.8°C 48% 2.0 mph E3.2 kmh E 3.0 mph4.8 kmh 30.23 in1023.7 mb 0.00 in0.0 mm 0.00 in0.0 mm 0.00 in0.0 mm
10:21 PM 49.4°F9.7°C 30.6°F-0.8°C 48% 1.0 mph E1.6 kmh E 3.0 mph4.8 kmh 30.24 in1024.0 mb 0.00 in0.0 mm 0.00 in0.0 mm 0.00 in0.0 mm
10:23 PM 49.4°F9.7°C 31.1°F-0.5°C 49% 2.0 mph E3.2 kmh E 3.0 mph4.8 kmh 30.24 in1024.0 mb 0.00 in0.0 mm 0.00 in0.0 mm 0.00 in0.0 mm
10:26 PM 49.4°F9.7°C 31.1°F-0.5°C 49% 2.0 mph E3.2 kmh E 3.0 mph4.8 kmh 30.24 in1024.0 mb 0.00 in0.0 mm 0.00 in0.0 mm 0.00 in0.0 mm
10:28 PM 49.3°F9.6°C 31.0°F-0.6°C 49% 2.0 mph E3.2 kmh E 3.0 mph4.8 kmh 30.24 in1024.0 mb 0.00 in0.0 mm 0.00 in0.0 mm 0.00 in0.0 mm
10:29 PM 49.2°F9.6°C 30.9°F-0.6°C 49% 1.0 mph E1.6 kmh E 3.0 mph4.8 kmh 30.24 in1024.0 mb 0.00 in0.0 mm 0.00 in0.0 mm 0.00 in0.0 mm
10:32 PM 49.2°F9.6°C 30.9°F-0.6°C 49% 1.0 mph E1.6 kmh E 2.0 mph3.2 kmh 30.24 in1024.0 mb 0.00 in0.0 mm 0.00 in0.0 mm 0.00 in0.0 mm
10:34 PM 49.1°F9.5°C 30.8°F-0.7°C 49% 1.0 mph E1.6 kmh E 2.0 mph3.2 kmh 30.24 in1024.0 mb 0.00 in0.0 mm 0.00 in0.0 mm 0.00 in0.0 mm
10:36 PM 49.1°F9.5°C 30.8°F-0.7°C 49% 2.0 mph E3.2 kmh E 2.0 mph3.2 kmh 30.23 in1023.7 mb 0.00 in0.0 mm 0.00 in0.0 mm 0.00 in0.0 mm
10:38 PM 49.1°F9.5°C 30.8°F-0.7°C 49% 2.0 mph E3.2 kmh E 3.0 mph4.8 kmh 30.23 in1023.7 mb 0.00 in0.0 mm 0.00 in0.0 mm 0.00 in0.0 mm
10:40 PM 49.0°F9.4°C 31.2°F-0.4°C 50% 3.0 mph E4.8 kmh E 3.0 mph4.8 kmh 30.23 in1023.7 mb 0.00 in0.0 mm 0.00 in0.0 mm 0.00 in0.0 mm
10:42 PM 48.9°F9.4°C 31.1°F-0.5°C 50% 1.0 mph E1.6 kmh E 3.0 mph4.8 kmh 30.23 in1023.7 mb 0.00 in0.0 mm 0.00 in0.0 mm 0.00 in0.0 mm
10:44 PM 48.8°F9.3°C 31.0°F-0.6°C 50% 1.0 mph E1.6 kmh E 3.0 mph4.8 kmh 30.23 in1023.7 mb 0.00 in0.0 mm 0.00 in0.0 mm 0.00 in0.0 mm
10:46 PM 48.8°F9.3°C 31.0°F-0.6°C 50% 2.0 mph E3.2 kmh E 3.0 mph4.8 kmh 30.23 in1023.7 mb 0.00 in0.0 mm 0.00 in0.0 mm 0.00 in0.0 mm
10:48 PM 48.7°F9.3°C 30.9°F-0.6°C 50% 3.0 mph E4.8 kmh E 3.0 mph4.8 kmh 30.23 in1023.7 mb 0.00 in0.0 mm 0.00 in0.0 mm 0.00 in0.0 mm
10:50 PM 48.6°F9.2°C 31.3°F-0.4°C 51% 1.0 mph E1.6 kmh E 3.0 mph4.8 kmh 30.23 in1023.7 mb 0.00 in0.0 mm 0.00 in0.0 mm 0.00 in0.0 mm
10:52 PM 48.5°F9.2°C 31.2°F-0.4°C 51% 1.0 mph E1.6 kmh E 3.0 mph4.8 kmh 30.23 in1023.7 mb 0.00 in0.0 mm 0.00 in0.0 mm 0.00 in0.0 mm
10:54 PM 48.4°F9.1°C 31.1°F-0.5°C 51% 2.0 mph E3.2 kmh E 3.0 mph4.8 kmh 30.23 in1023.7 mb 0.00 in0.0 mm 0.00 in0.0 mm 0.00 in0.0 mm
10:56 PM 48.4°F9.1°C 31.1°F-0.5°C 51% 2.0 mph E3.2 kmh E 3.0 mph4.8 kmh 30.23 in1023.7 mb 0.00 in0.0 mm 0.00 in0.0 mm 0.00 in0.0 mm
10:58 PM 48.3°F9.1°C 31.0°F-0.6°C 51% 2.0 mph E3.2 kmh E 3.0 mph4.8 kmh 30.23 in1023.7 mb 0.00 in0.0 mm 0.00 in0.0 mm 0.00 in0.0 mm
11:00 PM 48.3°F9.1°C 31.0°F-0.6°C 51% 2.0 mph E3.2 kmh E 3.0 mph4.8 kmh 30.23 in1023.7 mb 0.00 in0.0 mm 0.00 in0.0 mm 0.00 in0.0 mm
11:02 PM 48.2°F9.0°C 30.9°F-0.6°C 51% 2.0 mph E3.2 kmh E 3.0 mph4.8 kmh 30.23 in1023.7 mb 0.00 in0.0 mm 0.00 in0.0 mm 0.00 in0.0 mm
11:04 PM 48.1°F8.9°C 31.3°F-0.4°C 52% 2.0 mph E3.2 kmh E 4.0 mph6.4 kmh 30.23 in1023.7 mb 0.00 in0.0 mm 0.00 in0.0 mm 0.00 in0.0 mm
11:06 PM 48.1°F8.9°C 31.3°F-0.4°C 52% 2.0 mph E3.2 kmh E 4.0 mph6.4 kmh 30.23 in1023.7 mb 0.00 in0.0 mm 0.00 in0.0 mm 0.00 in0.0 mm
11:08 PM 48.1°F8.9°C 31.3°F-0.4°C 52% 3.0 mph E4.8 kmh E 4.0 mph6.4 kmh 30.23 in1023.7 mb 0.00 in0.0 mm 0.00 in0.0 mm 0.00 in0.0 mm
11:09 PM 48.0°F8.9°C 31.2°F-0.4°C 52% 1.0 mph E1.6 kmh E 4.0 mph6.4 kmh 30.23 in1023.7 mb 0.00 in0.0 mm 0.00 in0.0 mm 0.00 in0.0 mm
11:11 PM 47.9°F8.8°C 31.1°F-0.5°C 52% 2.0 mph E3.2 kmh E 4.0 mph6.4 kmh 30.22 in1023.4 mb 0.00 in0.0 mm 0.00 in0.0 mm 0.00 in0.0 mm
11:14 PM 47.9°F8.8°C 31.1°F-0.5°C 52% 2.0 mph E3.2 kmh E 4.0 mph6.4 kmh 30.22 in1023.4 mb 0.00 in0.0 mm 0.00 in0.0 mm 0.00 in0.0 mm
11:16 PM 47.8°F8.8°C 31.1°F-0.5°C 52% 3.0 mph SE4.8 kmh SE 5.0 mph8.0 kmh 30.22 in1023.4 mb 0.00 in0.0 mm 0.00 in0.0 mm 0.00 in0.0 mm
11:18 PM 47.8°F8.8°C 31.1°F-0.5°C 52% 2.0 mph SE3.2 kmh SE 5.0 mph8.0 kmh 30.22 in1023.4 mb 0.00 in0.0 mm 0.00 in0.0 mm 0.00 in0.0 mm
11:20 PM 47.7°F8.7°C 31.0°F-0.6°C 52% 3.0 mph SE4.8 kmh SE 5.0 mph8.0 kmh 30.22 in1023.4 mb 0.00 in0.0 mm 0.00 in0.0 mm 0.00 in0.0 mm
11:22 PM 47.7°F8.7°C 31.0°F-0.6°C 52% 2.0 mph SE3.2 kmh SE 5.0 mph8.0 kmh 30.22 in1023.4 mb 0.00 in0.0 mm 0.00 in0.0 mm 0.00 in0.0 mm
11:24 PM 47.7°F8.7°C 30.5°F-0.8°C 51% 3.0 mph ESE4.8 kmh ESE 6.0 mph9.7 kmh 30.23 in1023.7 mb 0.00 in0.0 mm 0.00 in0.0 mm 0.00 in0.0 mm
11:26 PM 47.7°F8.7°C 30.5°F-0.8°C 51% 2.0 mph SE3.2 kmh SE 6.0 mph9.7 kmh 30.23 in1023.7 mb 0.00 in0.0 mm 0.00 in0.0 mm 0.00 in0.0 mm
11:28 PM 47.7°F8.7°C 30.5°F-0.8°C 51% 1.0 mph SE1.6 kmh SE 6.0 mph9.7 kmh 30.23 in1023.7 mb 0.00 in0.0 mm 0.00 in0.0 mm 0.00 in0.0 mm
11:30 PM 47.7°F8.7°C 30.5°F-0.8°C 51% 2.0 mph SE3.2 kmh SE 6.0 mph9.7 kmh 30.23 in1023.7 mb 0.00 in0.0 mm 0.00 in0.0 mm 0.00 in0.0 mm
11:32 PM 47.6°F8.7°C 30.4°F-0.9°C 51% 3.0 mph SE4.8 kmh SE 6.0 mph9.7 kmh 30.23 in1023.7 mb 0.00 in0.0 mm 0.00 in0.0 mm 0.00 in0.0 mm
11:34 PM 47.6°F8.7°C 30.9°F-0.6°C 52% 1.0 mph SE1.6 kmh SE 3.0 mph4.8 kmh 30.23 in1023.7 mb 0.00 in0.0 mm 0.00 in0.0 mm 0.00 in0.0 mm
11:36 PM 47.5°F8.6°C 30.8°F-0.7°C 52% 2.0 mph SE3.2 kmh SE 3.0 mph4.8 kmh 30.23 in1023.7 mb 0.00 in0.0 mm 0.00 in0.0 mm 0.00 in0.0 mm
11:38 PM 47.4°F8.6°C 30.7°F-0.7°C 52% 2.0 mph SE3.2 kmh SE 3.0 mph4.8 kmh 30.23 in1023.7 mb 0.00 in0.0 mm 0.00 in0.0 mm 0.00 in0.0 mm
11:40 PM 47.3°F8.5°C 30.6°F-0.8°C 52% 3.0 mph SE4.8 kmh SE 3.0 mph4.8 kmh 30.23 in1023.7 mb 0.00 in0.0 mm 0.00 in0.0 mm 0.00 in0.0 mm
11:42 PM 47.2°F8.4°C 31.0°F-0.6°C 53% 2.0 mph SE3.2 kmh SE 4.0 mph6.4 kmh 30.23 in1023.7 mb 0.00 in0.0 mm 0.00 in0.0 mm 0.00 in0.0 mm
11:44 PM 47.2°F8.4°C 31.0°F-0.6°C 53% 2.0 mph SE3.2 kmh SE 4.0 mph6.4 kmh 30.23 in1023.7 mb 0.00 in0.0 mm 0.00 in0.0 mm 0.00 in0.0 mm
11:45 PM 47.1°F8.4°C 30.9°F-0.6°C 53% 1.0 mph SE1.6 kmh SE 4.0 mph6.4 kmh 30.23 in1023.7 mb 0.00 in0.0 mm 0.00 in0.0 mm 0.00 in0.0 mm
11:47 PM 47.0°F8.3°C 30.8°F-0.7°C 53% 2.0 mph SE3.2 kmh SE 4.0 mph6.4 kmh 30.23 in1023.7 mb 0.00 in0.0 mm 0.00 in0.0 mm 0.00 in0.0 mm
11:49 PM 47.0°F8.3°C 30.8°F-0.7°C 53% 2.0 mph SE3.2 kmh SE 4.0 mph6.4 kmh 30.23 in1023.7 mb 0.00 in0.0 mm 0.00 in0.0 mm 0.00 in0.0 mm
11:51 PM 46.9°F8.3°C 30.7°F-0.7°C 53% 3.0 mph SE4.8 kmh SE 4.0 mph6.4 kmh 30.23 in1023.7 mb 0.00 in0.0 mm 0.00 in0.0 mm 0.00 in0.0 mm
11:53 PM 46.9°F8.3°C 30.7°F-0.7°C 53% 2.0 mph SE3.2 kmh SE 4.0 mph6.4 kmh 30.23 in1023.7 mb 0.00 in0.0 mm 0.00 in0.0 mm 0.00 in0.0 mm
11:56 PM 46.7°F8.2°C 31.0°F-0.6°C 54% 1.0 mph SE1.6 kmh SE 4.0 mph6.4 kmh 30.23 in1023.7 mb 0.00 in0.0 mm 0.00 in0.0 mm 0.00 in0.0 mm
11:57 PM 46.5°F8.1°C 30.8°F-0.7°C 54% 2.0 mph SE3.2 kmh SE 4.0 mph6.4 kmh 30.23 in1023.7 mb 0.00 in0.0 mm 0.00 in0.0 mm 0.00 in0.0 mm